<?xml version="1.0" encoding="UTF-8" standalone="no" ?>
<gpx xmlns="http://www.topografix.com/GPX/1/1" xmlns:xsi="http://www.w3.org/2001/XMLSchema-instance" xsi:schemaLocation="http://www.topografix.com/GPX/1/1 http://www.topografix.com/GPX/1/1/gpx.xsd" version="1.1" creator="VisuGPX - https://www.visugpx.com">
  <metadata>
    <name>Machault et Féricy Boucle 19 km</name>
    <desc><![CDATA[Sortie effectuée en Aout 2017 avec le Rando Club Yerrois
Animatrice Pascale]]></desc>
  </metadata>
  <trk>
    <name><![CDATA[Machault et Féricy Boucle 19 km_1]]></name>
    <trkseg>
      <trkpt lat="48.45626" lon="2.83561">
        <ele>112.5</ele>
        <time>2017-08-30T07:51:30Z</time>
      </trkpt>
      <trkpt lat="48.45626" lon="2.83561">
        <ele>149.744</ele>
        <time>2017-08-30T07:51:33Z</time>
      </trkpt>
      <trkpt lat="48.45633" lon="2.8353">
        <ele>154.031</ele>
        <time>2017-08-30T07:53:52Z</time>
      </trkpt>
      <trkpt lat="48.45638" lon="2.83504">
        <ele>154.562</ele>
        <time>2017-08-30T07:54:07Z</time>
      </trkpt>
      <trkpt lat="48.4564" lon="2.83483">
        <ele>155.106</ele>
        <time>2017-08-30T07:54:23Z</time>
      </trkpt>
      <trkpt lat="48.45628" lon="2.83471">
        <ele>155.488</ele>
        <time>2017-08-30T07:54:36Z</time>
      </trkpt>
      <trkpt lat="48.45613" lon="2.8346">
        <ele>155.574</ele>
        <time>2017-08-30T07:54:52Z</time>
      </trkpt>
      <trkpt lat="48.45606" lon="2.83455">
        <ele>155.697</ele>
        <time>2017-08-30T07:54:58Z</time>
      </trkpt>
      <trkpt lat="48.45597" lon="2.83445">
        <ele>155.928</ele>
        <time>2017-08-30T07:55:07Z</time>
      </trkpt>
      <trkpt lat="48.45585" lon="2.83436">
        <ele>156.22</ele>
        <time>2017-08-30T07:55:20Z</time>
      </trkpt>
      <trkpt lat="48.45573" lon="2.8343">
        <ele>156.382</ele>
        <time>2017-08-30T07:55:30Z</time>
      </trkpt>
      <trkpt lat="48.45566" lon="2.83424">
        <ele>156.46</ele>
        <time>2017-08-30T07:55:36Z</time>
      </trkpt>
      <trkpt lat="48.45557" lon="2.83415">
        <ele>156.574</ele>
        <time>2017-08-30T07:55:45Z</time>
      </trkpt>
      <trkpt lat="48.45541" lon="2.834">
        <ele>156.701</ele>
        <time>2017-08-30T07:56:02Z</time>
      </trkpt>
      <trkpt lat="48.45523" lon="2.83386">
        <ele>156.722</ele>
        <time>2017-08-30T07:56:16Z</time>
      </trkpt>
      <trkpt lat="48.45508" lon="2.83386">
        <ele>156.695</ele>
        <time>2017-08-30T07:56:28Z</time>
      </trkpt>
      <trkpt lat="48.45499" lon="2.83374">
        <ele>156.685</ele>
        <time>2017-08-30T07:56:37Z</time>
      </trkpt>
      <trkpt lat="48.45492" lon="2.83367">
        <ele>156.668</ele>
        <time>2017-08-30T07:56:43Z</time>
      </trkpt>
      <trkpt lat="48.45492" lon="2.83367">
        <ele>112.4</ele>
        <time>2017-08-30T07:56:51Z</time>
      </trkpt>
      <trkpt lat="48.45492" lon="2.83367">
        <ele>112.4</ele>
        <time>2017-08-30T07:57:16Z</time>
      </trkpt>
      <trkpt lat="48.45487" lon="2.83345">
        <ele>156.773</ele>
        <time>2017-08-30T07:57:16Z</time>
      </trkpt>
      <trkpt lat="48.4549" lon="2.83311">
        <ele>156.864</ele>
        <time>2017-08-30T07:57:33Z</time>
      </trkpt>
      <trkpt lat="48.45499" lon="2.83274">
        <ele>156.872</ele>
        <time>2017-08-30T07:57:53Z</time>
      </trkpt>
      <trkpt lat="48.45507" lon="2.83248">
        <ele>156.855</ele>
        <time>2017-08-30T07:58:07Z</time>
      </trkpt>
      <trkpt lat="48.45507" lon="2.83216">
        <ele>156.862</ele>
        <time>2017-08-30T07:58:23Z</time>
      </trkpt>
      <trkpt lat="48.45508" lon="2.83185">
        <ele>156.902</ele>
        <time>2017-08-30T07:58:37Z</time>
      </trkpt>
      <trkpt lat="48.45508" lon="2.83156">
        <ele>156.946</ele>
        <time>2017-08-30T07:58:53Z</time>
      </trkpt>
      <trkpt lat="48.45512" lon="2.83127">
        <ele>156.975</ele>
        <time>2017-08-30T07:59:09Z</time>
      </trkpt>
      <trkpt lat="48.45495" lon="2.83104">
        <ele>156.999</ele>
        <time>2017-08-30T07:59:26Z</time>
      </trkpt>
      <trkpt lat="48.45493" lon="2.83078">
        <ele>156.983</ele>
        <time>2017-08-30T07:59:40Z</time>
      </trkpt>
      <trkpt lat="48.45494" lon="2.8306">
        <ele>156.928</ele>
        <time>2017-08-30T07:59:53Z</time>
      </trkpt>
      <trkpt lat="48.45469" lon="2.83044">
        <ele>156.761</ele>
        <time>2017-08-30T08:00:24Z</time>
      </trkpt>
      <trkpt lat="48.45467" lon="2.83044">
        <ele>156.754</ele>
        <time>2017-08-30T08:00:26Z</time>
      </trkpt>
      <trkpt lat="48.45467" lon="2.83044">
        <ele>111.5</ele>
        <time>2017-08-30T08:00:33Z</time>
      </trkpt>
      <trkpt lat="48.45467" lon="2.83044">
        <ele>111.5</ele>
        <time>2017-08-30T08:00:40Z</time>
      </trkpt>
      <trkpt lat="48.45457" lon="2.83046">
        <ele>156.675</ele>
        <time>2017-08-30T08:00:40Z</time>
      </trkpt>
      <trkpt lat="48.45439" lon="2.83044">
        <ele>156.585</ele>
        <time>2017-08-30T08:00:57Z</time>
      </trkpt>
      <trkpt lat="48.45416" lon="2.83045">
        <ele>156.487</ele>
        <time>2017-08-30T08:01:12Z</time>
      </trkpt>
      <trkpt lat="48.45405" lon="2.83045">
        <ele>156.432</ele>
        <time>2017-08-30T08:01:20Z</time>
      </trkpt>
      <trkpt lat="48.45397" lon="2.83046">
        <ele>156.372</ele>
        <time>2017-08-30T08:01:29Z</time>
      </trkpt>
      <trkpt lat="48.45382" lon="2.83044">
        <ele>156.281</ele>
        <time>2017-08-30T08:01:43Z</time>
      </trkpt>
      <trkpt lat="48.45369" lon="2.83038">
        <ele>156.227</ele>
        <time>2017-08-30T08:01:54Z</time>
      </trkpt>
      <trkpt lat="48.4535" lon="2.83032">
        <ele>156.17</ele>
        <time>2017-08-30T08:02:09Z</time>
      </trkpt>
      <trkpt lat="48.45329" lon="2.83024">
        <ele>156.093</ele>
        <time>2017-08-30T08:02:28Z</time>
      </trkpt>
      <trkpt lat="48.45304" lon="2.83012">
        <ele>155.972</ele>
        <time>2017-08-30T08:02:46Z</time>
      </trkpt>
      <trkpt lat="48.45286" lon="2.83004">
        <ele>155.872</ele>
        <time>2017-08-30T08:03:02Z</time>
      </trkpt>
      <trkpt lat="48.4527" lon="2.83">
        <ele>155.771</ele>
        <time>2017-08-30T08:03:16Z</time>
      </trkpt>
      <trkpt lat="48.4525" lon="2.82996">
        <ele>155.686</ele>
        <time>2017-08-30T08:03:33Z</time>
      </trkpt>
      <trkpt lat="48.4523" lon="2.82993">
        <ele>155.574</ele>
        <time>2017-08-30T08:03:51Z</time>
      </trkpt>
      <trkpt lat="48.4522" lon="2.8299">
        <ele>155.525</ele>
        <time>2017-08-30T08:03:58Z</time>
      </trkpt>
      <trkpt lat="48.4521" lon="2.82988">
        <ele>155.474</ele>
        <time>2017-08-30T08:04:05Z</time>
      </trkpt>
      <trkpt lat="48.45197" lon="2.82989">
        <ele>155.379</ele>
        <time>2017-08-30T08:04:17Z</time>
      </trkpt>
      <trkpt lat="48.45185" lon="2.8299">
        <ele>155.296</ele>
        <time>2017-08-30T08:04:27Z</time>
      </trkpt>
      <trkpt lat="48.45166" lon="2.82996">
        <ele>155.123</ele>
        <time>2017-08-30T08:04:44Z</time>
      </trkpt>
      <trkpt lat="48.45146" lon="2.83002">
        <ele>154.966</ele>
        <time>2017-08-30T08:04:58Z</time>
      </trkpt>
      <trkpt lat="48.45129" lon="2.83007">
        <ele>154.811</ele>
        <time>2017-08-30T08:05:12Z</time>
      </trkpt>
      <trkpt lat="48.45108" lon="2.82996">
        <ele>154.653</ele>
        <time>2017-08-30T08:05:27Z</time>
      </trkpt>
      <trkpt lat="48.45101" lon="2.82972">
        <ele>154.489</ele>
        <time>2017-08-30T08:05:43Z</time>
      </trkpt>
      <trkpt lat="48.45094" lon="2.82953">
        <ele>154.374</ele>
        <time>2017-08-30T08:05:56Z</time>
      </trkpt>
      <trkpt lat="48.45085" lon="2.8293">
        <ele>154.246</ele>
        <time>2017-08-30T08:06:10Z</time>
      </trkpt>
      <trkpt lat="48.45076" lon="2.829">
        <ele>154.107</ele>
        <time>2017-08-30T08:06:28Z</time>
      </trkpt>
      <trkpt lat="48.45068" lon="2.82878">
        <ele>154.025</ele>
        <time>2017-08-30T08:06:41Z</time>
      </trkpt>
      <trkpt lat="48.45056" lon="2.82856">
        <ele>153.915</ele>
        <time>2017-08-30T08:06:56Z</time>
      </trkpt>
      <trkpt lat="48.45045" lon="2.82834">
        <ele>153.8</ele>
        <time>2017-08-30T08:07:11Z</time>
      </trkpt>
      <trkpt lat="48.45039" lon="2.82809">
        <ele>153.698</ele>
        <time>2017-08-30T08:07:25Z</time>
      </trkpt>
      <trkpt lat="48.45028" lon="2.82784">
        <ele>153.566</ele>
        <time>2017-08-30T08:07:40Z</time>
      </trkpt>
      <trkpt lat="48.45021" lon="2.82772">
        <ele>153.505</ele>
        <time>2017-08-30T08:07:47Z</time>
      </trkpt>
      <trkpt lat="48.45013" lon="2.82757">
        <ele>153.405</ele>
        <time>2017-08-30T08:07:59Z</time>
      </trkpt>
      <trkpt lat="48.45003" lon="2.82729">
        <ele>153.305</ele>
        <time>2017-08-30T08:08:15Z</time>
      </trkpt>
      <trkpt lat="48.44992" lon="2.82709">
        <ele>153.194</ele>
        <time>2017-08-30T08:08:30Z</time>
      </trkpt>
      <trkpt lat="48.44983" lon="2.82711">
        <ele>153.129</ele>
        <time>2017-08-30T08:08:39Z</time>
      </trkpt>
      <trkpt lat="48.4496" lon="2.82712">
        <ele>152.962</ele>
        <time>2017-08-30T08:08:58Z</time>
      </trkpt>
      <trkpt lat="48.44933" lon="2.82718">
        <ele>152.774</ele>
        <time>2017-08-30T08:09:28Z</time>
      </trkpt>
      <trkpt lat="48.44916" lon="2.82718">
        <ele>152.733</ele>
        <time>2017-08-30T08:09:42Z</time>
      </trkpt>
      <trkpt lat="48.449" lon="2.8272">
        <ele>152.7</ele>
        <time>2017-08-30T08:09:58Z</time>
      </trkpt>
      <trkpt lat="48.44877" lon="2.82722">
        <ele>152.681</ele>
        <time>2017-08-30T08:10:17Z</time>
      </trkpt>
      <trkpt lat="48.44864" lon="2.82722">
        <ele>152.663</ele>
        <time>2017-08-30T08:10:28Z</time>
      </trkpt>
      <trkpt lat="48.44843" lon="2.82725">
        <ele>152.629</ele>
        <time>2017-08-30T08:10:44Z</time>
      </trkpt>
      <trkpt lat="48.44828" lon="2.82727">
        <ele>152.61</ele>
        <time>2017-08-30T08:10:57Z</time>
      </trkpt>
      <trkpt lat="48.44814" lon="2.82729">
        <ele>152.588</ele>
        <time>2017-08-30T08:11:09Z</time>
      </trkpt>
      <trkpt lat="48.44794" lon="2.82731">
        <ele>152.584</ele>
        <time>2017-08-30T08:11:25Z</time>
      </trkpt>
      <trkpt lat="48.44775" lon="2.82732">
        <ele>152.583</ele>
        <time>2017-08-30T08:11:41Z</time>
      </trkpt>
      <trkpt lat="48.44753" lon="2.82736">
        <ele>152.615</ele>
        <time>2017-08-30T08:12:00Z</time>
      </trkpt>
      <trkpt lat="48.44735" lon="2.82739">
        <ele>152.626</ele>
        <time>2017-08-30T08:12:16Z</time>
      </trkpt>
      <trkpt lat="48.44715" lon="2.82738">
        <ele>152.633</ele>
        <time>2017-08-30T08:12:31Z</time>
      </trkpt>
      <trkpt lat="48.44698" lon="2.82739">
        <ele>152.642</ele>
        <time>2017-08-30T08:12:44Z</time>
      </trkpt>
      <trkpt lat="48.44677" lon="2.82741">
        <ele>152.621</ele>
        <time>2017-08-30T08:13:03Z</time>
      </trkpt>
      <trkpt lat="48.44662" lon="2.82742">
        <ele>152.601</ele>
        <time>2017-08-30T08:13:18Z</time>
      </trkpt>
      <trkpt lat="48.44641" lon="2.8274">
        <ele>152.595</ele>
        <time>2017-08-30T08:13:35Z</time>
      </trkpt>
      <trkpt lat="48.44624" lon="2.82741">
        <ele>152.611</ele>
        <time>2017-08-30T08:13:49Z</time>
      </trkpt>
      <trkpt lat="48.44604" lon="2.82742">
        <ele>152.616</ele>
        <time>2017-08-30T08:14:05Z</time>
      </trkpt>
      <trkpt lat="48.44593" lon="2.82742">
        <ele>152.61</ele>
        <time>2017-08-30T08:14:15Z</time>
      </trkpt>
      <trkpt lat="48.44573" lon="2.8274">
        <ele>152.594</ele>
        <time>2017-08-30T08:14:31Z</time>
      </trkpt>
      <trkpt lat="48.44559" lon="2.82742">
        <ele>152.568</ele>
        <time>2017-08-30T08:14:43Z</time>
      </trkpt>
      <trkpt lat="48.44542" lon="2.82746">
        <ele>152.52</ele>
        <time>2017-08-30T08:15:00Z</time>
      </trkpt>
      <trkpt lat="48.44528" lon="2.82744">
        <ele>152.468</ele>
        <time>2017-08-30T08:15:13Z</time>
      </trkpt>
      <trkpt lat="48.44511" lon="2.82745">
        <ele>152.397</ele>
        <time>2017-08-30T08:15:28Z</time>
      </trkpt>
      <trkpt lat="48.44498" lon="2.82748">
        <ele>152.335</ele>
        <time>2017-08-30T08:15:40Z</time>
      </trkpt>
      <trkpt lat="48.44478" lon="2.82748">
        <ele>152.238</ele>
        <time>2017-08-30T08:15:57Z</time>
      </trkpt>
      <trkpt lat="48.44454" lon="2.8275">
        <ele>152.134</ele>
        <time>2017-08-30T08:16:16Z</time>
      </trkpt>
      <trkpt lat="48.44436" lon="2.82748">
        <ele>152.071</ele>
        <time>2017-08-30T08:16:31Z</time>
      </trkpt>
      <trkpt lat="48.44427" lon="2.82748">
        <ele>152.037</ele>
        <time>2017-08-30T08:16:38Z</time>
      </trkpt>
      <trkpt lat="48.44413" lon="2.82749">
        <ele>151.979</ele>
        <time>2017-08-30T08:16:50Z</time>
      </trkpt>
      <trkpt lat="48.44394" lon="2.82748">
        <ele>151.914</ele>
        <time>2017-08-30T08:17:05Z</time>
      </trkpt>
      <trkpt lat="48.44383" lon="2.82747">
        <ele>151.872</ele>
        <time>2017-08-30T08:17:16Z</time>
      </trkpt>
      <trkpt lat="48.44372" lon="2.8275">
        <ele>151.861</ele>
        <time>2017-08-30T08:17:23Z</time>
      </trkpt>
      <trkpt lat="48.44359" lon="2.82751">
        <ele>151.861</ele>
        <time>2017-08-30T08:17:34Z</time>
      </trkpt>
      <trkpt lat="48.44339" lon="2.82747">
        <ele>151.853</ele>
        <time>2017-08-30T08:17:49Z</time>
      </trkpt>
      <trkpt lat="48.44324" lon="2.82749">
        <ele>151.837</ele>
        <time>2017-08-30T08:18:04Z</time>
      </trkpt>
      <trkpt lat="48.44303" lon="2.8275">
        <ele>151.815</ele>
        <time>2017-08-30T08:18:22Z</time>
      </trkpt>
      <trkpt lat="48.4428" lon="2.8275">
        <ele>151.783</ele>
        <time>2017-08-30T08:18:41Z</time>
      </trkpt>
      <trkpt lat="48.44266" lon="2.82753">
        <ele>151.757</ele>
        <time>2017-08-30T08:18:54Z</time>
      </trkpt>
      <trkpt lat="48.44254" lon="2.82754">
        <ele>151.741</ele>
        <time>2017-08-30T08:19:02Z</time>
      </trkpt>
      <trkpt lat="48.44238" lon="2.82755">
        <ele>151.712</ele>
        <time>2017-08-30T08:19:15Z</time>
      </trkpt>
      <trkpt lat="48.44225" lon="2.82757">
        <ele>151.688</ele>
        <time>2017-08-30T08:19:26Z</time>
      </trkpt>
      <trkpt lat="48.44203" lon="2.82756">
        <ele>151.648</ele>
        <time>2017-08-30T08:19:43Z</time>
      </trkpt>
      <trkpt lat="48.44189" lon="2.82754">
        <ele>151.613</ele>
        <time>2017-08-30T08:19:55Z</time>
      </trkpt>
      <trkpt lat="48.44179" lon="2.82755">
        <ele>151.576</ele>
        <time>2017-08-30T08:20:07Z</time>
      </trkpt>
      <trkpt lat="48.44179" lon="2.82755">
        <ele>102</ele>
        <time>2017-08-30T08:20:15Z</time>
      </trkpt>
      <trkpt lat="48.44179" lon="2.82755">
        <ele>102</ele>
        <time>2017-08-30T08:26:20Z</time>
      </trkpt>
      <trkpt lat="48.44169" lon="2.8274">
        <ele>150.321</ele>
        <time>2017-08-30T08:26:20Z</time>
      </trkpt>
      <trkpt lat="48.44165" lon="2.82714">
        <ele>150.162</ele>
        <time>2017-08-30T08:26:38Z</time>
      </trkpt>
      <trkpt lat="48.44158" lon="2.82694">
        <ele>150.066</ele>
        <time>2017-08-30T08:26:54Z</time>
      </trkpt>
      <trkpt lat="48.44154" lon="2.82669">
        <ele>149.988</ele>
        <time>2017-08-30T08:27:11Z</time>
      </trkpt>
      <trkpt lat="48.4415" lon="2.8265">
        <ele>149.928</ele>
        <time>2017-08-30T08:27:24Z</time>
      </trkpt>
      <trkpt lat="48.44146" lon="2.82634">
        <ele>149.906</ele>
        <time>2017-08-30T08:27:33Z</time>
      </trkpt>
      <trkpt lat="48.44142" lon="2.82613">
        <ele>149.864</ele>
        <time>2017-08-30T08:27:46Z</time>
      </trkpt>
      <trkpt lat="48.44137" lon="2.82589">
        <ele>149.785</ele>
        <time>2017-08-30T08:28:02Z</time>
      </trkpt>
      <trkpt lat="48.44133" lon="2.82566">
        <ele>149.693</ele>
        <time>2017-08-30T08:28:17Z</time>
      </trkpt>
      <trkpt lat="48.4413" lon="2.82544">
        <ele>149.588</ele>
        <time>2017-08-30T08:28:34Z</time>
      </trkpt>
      <trkpt lat="48.44125" lon="2.82528">
        <ele>149.462</ele>
        <time>2017-08-30T08:28:48Z</time>
      </trkpt>
      <trkpt lat="48.44125" lon="2.82514">
        <ele>149.378</ele>
        <time>2017-08-30T08:28:57Z</time>
      </trkpt>
      <trkpt lat="48.44123" lon="2.82499">
        <ele>149.265</ele>
        <time>2017-08-30T08:29:08Z</time>
      </trkpt>
      <trkpt lat="48.4412" lon="2.82475">
        <ele>149.114</ele>
        <time>2017-08-30T08:29:25Z</time>
      </trkpt>
      <trkpt lat="48.44118" lon="2.82453">
        <ele>149.018</ele>
        <time>2017-08-30T08:29:39Z</time>
      </trkpt>
      <trkpt lat="48.44114" lon="2.82429">
        <ele>148.905</ele>
        <time>2017-08-30T08:29:57Z</time>
      </trkpt>
      <trkpt lat="48.44114" lon="2.82406">
        <ele>148.821</ele>
        <time>2017-08-30T08:30:11Z</time>
      </trkpt>
      <trkpt lat="48.44111" lon="2.82389">
        <ele>148.775</ele>
        <time>2017-08-30T08:30:21Z</time>
      </trkpt>
      <trkpt lat="48.44106" lon="2.82363">
        <ele>148.697</ele>
        <time>2017-08-30T08:30:40Z</time>
      </trkpt>
      <trkpt lat="48.44105" lon="2.82342">
        <ele>148.664</ele>
        <time>2017-08-30T08:30:51Z</time>
      </trkpt>
      <trkpt lat="48.441" lon="2.82318">
        <ele>148.631</ele>
        <time>2017-08-30T08:31:06Z</time>
      </trkpt>
      <trkpt lat="48.441" lon="2.82296">
        <ele>148.623</ele>
        <time>2017-08-30T08:31:21Z</time>
      </trkpt>
      <trkpt lat="48.44093" lon="2.82265">
        <ele>148.62</ele>
        <time>2017-08-30T08:31:40Z</time>
      </trkpt>
      <trkpt lat="48.44086" lon="2.82239">
        <ele>148.619</ele>
        <time>2017-08-30T08:31:58Z</time>
      </trkpt>
      <trkpt lat="48.44082" lon="2.82209">
        <ele>148.609</ele>
        <time>2017-08-30T08:32:15Z</time>
      </trkpt>
      <trkpt lat="48.44079" lon="2.82198">
        <ele>148.614</ele>
        <time>2017-08-30T08:32:22Z</time>
      </trkpt>
      <trkpt lat="48.44081" lon="2.82176">
        <ele>148.61</ele>
        <time>2017-08-30T08:32:36Z</time>
      </trkpt>
      <trkpt lat="48.44078" lon="2.82157">
        <ele>148.604</ele>
        <time>2017-08-30T08:32:50Z</time>
      </trkpt>
      <trkpt lat="48.44079" lon="2.82132">
        <ele>148.565</ele>
        <time>2017-08-30T08:33:07Z</time>
      </trkpt>
      <trkpt lat="48.4408" lon="2.82113">
        <ele>148.53</ele>
        <time>2017-08-30T08:33:18Z</time>
      </trkpt>
      <trkpt lat="48.44076" lon="2.82093">
        <ele>148.49</ele>
        <time>2017-08-30T08:33:30Z</time>
      </trkpt>
      <trkpt lat="48.44076" lon="2.82069">
        <ele>148.431</ele>
        <time>2017-08-30T08:33:48Z</time>
      </trkpt>
      <trkpt lat="48.44101" lon="2.82043">
        <ele>148.318</ele>
        <time>2017-08-30T08:34:38Z</time>
      </trkpt>
      <trkpt lat="48.44117" lon="2.8201">
        <ele>148.286</ele>
        <time>2017-08-30T08:35:27Z</time>
      </trkpt>
      <trkpt lat="48.44132" lon="2.82003">
        <ele>148.282</ele>
        <time>2017-08-30T08:35:45Z</time>
      </trkpt>
      <trkpt lat="48.44161" lon="2.81982">
        <ele>148.341</ele>
        <time>2017-08-30T08:36:26Z</time>
      </trkpt>
      <trkpt lat="48.44167" lon="2.8197">
        <ele>148.349</ele>
        <time>2017-08-30T08:36:34Z</time>
      </trkpt>
      <trkpt lat="48.44175" lon="2.81955">
        <ele>148.353</ele>
        <time>2017-08-30T08:36:48Z</time>
      </trkpt>
      <trkpt lat="48.44184" lon="2.81939">
        <ele>148.365</ele>
        <time>2017-08-30T08:37:02Z</time>
      </trkpt>
      <trkpt lat="48.44189" lon="2.81924">
        <ele>148.393</ele>
        <time>2017-08-30T08:37:15Z</time>
      </trkpt>
      <trkpt lat="48.44189" lon="2.81924">
        <ele>99</ele>
        <time>2017-08-30T08:37:23Z</time>
      </trkpt>
      <trkpt lat="48.44189" lon="2.81924">
        <ele>99</ele>
        <time>2017-08-30T08:37:27Z</time>
      </trkpt>
      <trkpt lat="48.4418" lon="2.81915">
        <ele>148.41</ele>
        <time>2017-08-30T08:37:27Z</time>
      </trkpt>
      <trkpt lat="48.44171" lon="2.81898">
        <ele>148.404</ele>
        <time>2017-08-30T08:37:42Z</time>
      </trkpt>
      <trkpt lat="48.44169" lon="2.81877">
        <ele>148.374</ele>
        <time>2017-08-30T08:37:52Z</time>
      </trkpt>
      <trkpt lat="48.44164" lon="2.81857">
        <ele>148.347</ele>
        <time>2017-08-30T08:38:03Z</time>
      </trkpt>
      <trkpt lat="48.44156" lon="2.81834">
        <ele>148.325</ele>
        <time>2017-08-30T08:38:20Z</time>
      </trkpt>
      <trkpt lat="48.4415" lon="2.81809">
        <ele>148.299</ele>
        <time>2017-08-30T08:38:36Z</time>
      </trkpt>
      <trkpt lat="48.44137" lon="2.81782">
        <ele>148.259</ele>
        <time>2017-08-30T08:38:53Z</time>
      </trkpt>
      <trkpt lat="48.44129" lon="2.8177">
        <ele>148.235</ele>
        <time>2017-08-30T08:39:04Z</time>
      </trkpt>
      <trkpt lat="48.44122" lon="2.81751">
        <ele>148.207</ele>
        <time>2017-08-30T08:39:19Z</time>
      </trkpt>
      <trkpt lat="48.44107" lon="2.81725">
        <ele>148.17</ele>
        <time>2017-08-30T08:39:39Z</time>
      </trkpt>
      <trkpt lat="48.44093" lon="2.81702">
        <ele>148.118</ele>
        <time>2017-08-30T08:39:57Z</time>
      </trkpt>
      <trkpt lat="48.44082" lon="2.81684">
        <ele>148.083</ele>
        <time>2017-08-30T08:40:13Z</time>
      </trkpt>
      <trkpt lat="48.44071" lon="2.81667">
        <ele>148.049</ele>
        <time>2017-08-30T08:40:26Z</time>
      </trkpt>
      <trkpt lat="48.44057" lon="2.81635">
        <ele>148.011</ele>
        <time>2017-08-30T08:40:44Z</time>
      </trkpt>
      <trkpt lat="48.44058" lon="2.81618">
        <ele>148.001</ele>
        <time>2017-08-30T08:40:54Z</time>
      </trkpt>
      <trkpt lat="48.44066" lon="2.81605">
        <ele>147.992</ele>
        <time>2017-08-30T08:41:06Z</time>
      </trkpt>
      <trkpt lat="48.44072" lon="2.81584">
        <ele>147.971</ele>
        <time>2017-08-30T08:41:21Z</time>
      </trkpt>
      <trkpt lat="48.44069" lon="2.81559">
        <ele>147.944</ele>
        <time>2017-08-30T08:41:37Z</time>
      </trkpt>
      <trkpt lat="48.44065" lon="2.81539">
        <ele>147.935</ele>
        <time>2017-08-30T08:41:49Z</time>
      </trkpt>
      <trkpt lat="48.4406" lon="2.81518">
        <ele>147.939</ele>
        <time>2017-08-30T08:41:59Z</time>
      </trkpt>
      <trkpt lat="48.44056" lon="2.81498">
        <ele>147.906</ele>
        <time>2017-08-30T08:42:11Z</time>
      </trkpt>
      <trkpt lat="48.44052" lon="2.81472">
        <ele>147.809</ele>
        <time>2017-08-30T08:42:26Z</time>
      </trkpt>
      <trkpt lat="48.4405" lon="2.81456">
        <ele>147.772</ele>
        <time>2017-08-30T08:42:35Z</time>
      </trkpt>
      <trkpt lat="48.44045" lon="2.81426">
        <ele>147.713</ele>
        <time>2017-08-30T08:42:54Z</time>
      </trkpt>
      <trkpt lat="48.44044" lon="2.81407">
        <ele>147.671</ele>
        <time>2017-08-30T08:43:04Z</time>
      </trkpt>
      <trkpt lat="48.44045" lon="2.81386">
        <ele>147.605</ele>
        <time>2017-08-30T08:43:15Z</time>
      </trkpt>
      <trkpt lat="48.44045" lon="2.81351">
        <ele>147.529</ele>
        <time>2017-08-30T08:43:33Z</time>
      </trkpt>
      <trkpt lat="48.44051" lon="2.81331">
        <ele>147.478</ele>
        <time>2017-08-30T08:43:45Z</time>
      </trkpt>
      <trkpt lat="48.4405" lon="2.81301">
        <ele>147.43</ele>
        <time>2017-08-30T08:44:00Z</time>
      </trkpt>
      <trkpt lat="48.44055" lon="2.81266">
        <ele>147.426</ele>
        <time>2017-08-30T08:44:20Z</time>
      </trkpt>
      <trkpt lat="48.4405" lon="2.81246">
        <ele>147.43</ele>
        <time>2017-08-30T08:44:33Z</time>
      </trkpt>
      <trkpt lat="48.44043" lon="2.81222">
        <ele>147.435</ele>
        <time>2017-08-30T08:44:47Z</time>
      </trkpt>
      <trkpt lat="48.44037" lon="2.81194">
        <ele>147.415</ele>
        <time>2017-08-30T08:45:04Z</time>
      </trkpt>
      <trkpt lat="48.44029" lon="2.81174">
        <ele>147.397</ele>
        <time>2017-08-30T08:45:17Z</time>
      </trkpt>
      <trkpt lat="48.44027" lon="2.81163">
        <ele>147.389</ele>
        <time>2017-08-30T08:45:26Z</time>
      </trkpt>
      <trkpt lat="48.44027" lon="2.81163">
        <ele>97</ele>
        <time>2017-08-30T08:45:34Z</time>
      </trkpt>
      <trkpt lat="48.44027" lon="2.81163">
        <ele>97</ele>
        <time>2017-08-30T09:00:30Z</time>
      </trkpt>
      <trkpt lat="48.44015" lon="2.81139">
        <ele>143.418</ele>
        <time>2017-08-30T09:00:30Z</time>
      </trkpt>
      <trkpt lat="48.44009" lon="2.81116">
        <ele>143.433</ele>
        <time>2017-08-30T09:00:47Z</time>
      </trkpt>
      <trkpt lat="48.43999" lon="2.81088">
        <ele>143.445</ele>
        <time>2017-08-30T09:01:04Z</time>
      </trkpt>
      <trkpt lat="48.43992" lon="2.81065">
        <ele>143.446</ele>
        <time>2017-08-30T09:01:18Z</time>
      </trkpt>
      <trkpt lat="48.43986" lon="2.81044">
        <ele>143.444</ele>
        <time>2017-08-30T09:01:29Z</time>
      </trkpt>
      <trkpt lat="48.43979" lon="2.81021">
        <ele>143.433</ele>
        <time>2017-08-30T09:01:43Z</time>
      </trkpt>
      <trkpt lat="48.43969" lon="2.80992">
        <ele>143.427</ele>
        <time>2017-08-30T09:02:00Z</time>
      </trkpt>
      <trkpt lat="48.43964" lon="2.80976">
        <ele>143.428</ele>
        <time>2017-08-30T09:02:08Z</time>
      </trkpt>
      <trkpt lat="48.43954" lon="2.80948">
        <ele>143.419</ele>
        <time>2017-08-30T09:02:24Z</time>
      </trkpt>
      <trkpt lat="48.43948" lon="2.8093">
        <ele>143.408</ele>
        <time>2017-08-30T09:02:35Z</time>
      </trkpt>
      <trkpt lat="48.43938" lon="2.80901">
        <ele>143.403</ele>
        <time>2017-08-30T09:02:51Z</time>
      </trkpt>
      <trkpt lat="48.4393" lon="2.80881">
        <ele>143.401</ele>
        <time>2017-08-30T09:03:03Z</time>
      </trkpt>
      <trkpt lat="48.43924" lon="2.80865">
        <ele>143.402</ele>
        <time>2017-08-30T09:03:14Z</time>
      </trkpt>
      <trkpt lat="48.43912" lon="2.80833">
        <ele>143.406</ele>
        <time>2017-08-30T09:03:33Z</time>
      </trkpt>
      <trkpt lat="48.43905" lon="2.80813">
        <ele>143.408</ele>
        <time>2017-08-30T09:03:45Z</time>
      </trkpt>
      <trkpt lat="48.43896" lon="2.8079">
        <ele>143.406</ele>
        <time>2017-08-30T09:04:01Z</time>
      </trkpt>
      <trkpt lat="48.43904" lon="2.80779">
        <ele>143.414</ele>
        <time>2017-08-30T09:04:18Z</time>
      </trkpt>
      <trkpt lat="48.43927" lon="2.80784">
        <ele>143.407</ele>
        <time>2017-08-30T09:04:33Z</time>
      </trkpt>
      <trkpt lat="48.43945" lon="2.80784">
        <ele>143.408</ele>
        <time>2017-08-30T09:04:51Z</time>
      </trkpt>
      <trkpt lat="48.43967" lon="2.80782">
        <ele>143.408</ele>
        <time>2017-08-30T09:05:10Z</time>
      </trkpt>
      <trkpt lat="48.43992" lon="2.80784">
        <ele>143.407</ele>
        <time>2017-08-30T09:05:30Z</time>
      </trkpt>
      <trkpt lat="48.44008" lon="2.80785">
        <ele>143.403</ele>
        <time>2017-08-30T09:05:43Z</time>
      </trkpt>
      <trkpt lat="48.44008" lon="2.80785">
        <ele>143.403</ele>
        <time>2017-08-30T09:05:48Z</time>
      </trkpt>
      <trkpt lat="48.44008" lon="2.80785">
        <ele>97</ele>
        <time>2017-08-30T09:05:48Z</time>
      </trkpt>
      <trkpt lat="48.44008" lon="2.80785">
        <ele>97</ele>
        <time>2017-08-30T09:05:53Z</time>
      </trkpt>
      <trkpt lat="48.44019" lon="2.80783">
        <ele>143.405</ele>
        <time>2017-08-30T09:05:53Z</time>
      </trkpt>
      <trkpt lat="48.44037" lon="2.80782">
        <ele>143.413</ele>
        <time>2017-08-30T09:06:07Z</time>
      </trkpt>
      <trkpt lat="48.4406" lon="2.8078">
        <ele>143.427</ele>
        <time>2017-08-30T09:06:25Z</time>
      </trkpt>
      <trkpt lat="48.44068" lon="2.8078">
        <ele>143.435</ele>
        <time>2017-08-30T09:06:34Z</time>
      </trkpt>
      <trkpt lat="48.44079" lon="2.8078">
        <ele>143.444</ele>
        <time>2017-08-30T09:06:44Z</time>
      </trkpt>
      <trkpt lat="48.44093" lon="2.80778">
        <ele>143.457</ele>
        <time>2017-08-30T09:06:56Z</time>
      </trkpt>
      <trkpt lat="48.44116" lon="2.8078">
        <ele>143.474</ele>
        <time>2017-08-30T09:07:16Z</time>
      </trkpt>
      <trkpt lat="48.44134" lon="2.80779">
        <ele>143.489</ele>
        <time>2017-08-30T09:07:31Z</time>
      </trkpt>
      <trkpt lat="48.44153" lon="2.80776">
        <ele>143.512</ele>
        <time>2017-08-30T09:07:48Z</time>
      </trkpt>
      <trkpt lat="48.44175" lon="2.80775">
        <ele>143.523</ele>
        <time>2017-08-30T09:08:06Z</time>
      </trkpt>
      <trkpt lat="48.4419" lon="2.80773">
        <ele>143.529</ele>
        <time>2017-08-30T09:08:21Z</time>
      </trkpt>
      <trkpt lat="48.44205" lon="2.8077">
        <ele>143.535</ele>
        <time>2017-08-30T09:08:36Z</time>
      </trkpt>
      <trkpt lat="48.44225" lon="2.80768">
        <ele>143.542</ele>
        <time>2017-08-30T09:08:52Z</time>
      </trkpt>
      <trkpt lat="48.44243" lon="2.80773">
        <ele>143.551</ele>
        <time>2017-08-30T09:09:09Z</time>
      </trkpt>
      <trkpt lat="48.44255" lon="2.80772">
        <ele>143.559</ele>
        <time>2017-08-30T09:09:19Z</time>
      </trkpt>
      <trkpt lat="48.44267" lon="2.80769">
        <ele>143.571</ele>
        <time>2017-08-30T09:09:29Z</time>
      </trkpt>
      <trkpt lat="48.44285" lon="2.80766">
        <ele>143.583</ele>
        <time>2017-08-30T09:09:48Z</time>
      </trkpt>
      <trkpt lat="48.44296" lon="2.80763">
        <ele>143.586</ele>
        <time>2017-08-30T09:09:59Z</time>
      </trkpt>
      <trkpt lat="48.44313" lon="2.8076">
        <ele>143.59</ele>
        <time>2017-08-30T09:10:15Z</time>
      </trkpt>
      <trkpt lat="48.44331" lon="2.80758">
        <ele>143.589</ele>
        <time>2017-08-30T09:10:30Z</time>
      </trkpt>
      <trkpt lat="48.44343" lon="2.80753">
        <ele>143.589</ele>
        <time>2017-08-30T09:10:39Z</time>
      </trkpt>
      <trkpt lat="48.44356" lon="2.8075">
        <ele>143.588</ele>
        <time>2017-08-30T09:10:49Z</time>
      </trkpt>
      <trkpt lat="48.44381" lon="2.80743">
        <ele>143.581</ele>
        <time>2017-08-30T09:11:08Z</time>
      </trkpt>
      <trkpt lat="48.44394" lon="2.80734">
        <ele>143.578</ele>
        <time>2017-08-30T09:11:18Z</time>
      </trkpt>
      <trkpt lat="48.44403" lon="2.80729">
        <ele>143.572</ele>
        <time>2017-08-30T09:11:28Z</time>
      </trkpt>
      <trkpt lat="48.44424" lon="2.80717">
        <ele>143.562</ele>
        <time>2017-08-30T09:11:45Z</time>
      </trkpt>
      <trkpt lat="48.44439" lon="2.80708">
        <ele>143.565</ele>
        <time>2017-08-30T09:12:01Z</time>
      </trkpt>
      <trkpt lat="48.44457" lon="2.80699">
        <ele>143.573</ele>
        <time>2017-08-30T09:12:15Z</time>
      </trkpt>
      <trkpt lat="48.44461" lon="2.80699">
        <ele>143.579</ele>
        <time>2017-08-30T09:12:20Z</time>
      </trkpt>
      <trkpt lat="48.44461" lon="2.80699">
        <ele>102.2</ele>
        <time>2017-08-30T09:12:25Z</time>
      </trkpt>
      <trkpt lat="48.44461" lon="2.80699">
        <ele>102.2</ele>
        <time>2017-08-30T09:12:29Z</time>
      </trkpt>
      <trkpt lat="48.4447" lon="2.80691">
        <ele>143.591</ele>
        <time>2017-08-30T09:12:29Z</time>
      </trkpt>
      <trkpt lat="48.44485" lon="2.80686">
        <ele>143.605</ele>
        <time>2017-08-30T09:12:42Z</time>
      </trkpt>
      <trkpt lat="48.44506" lon="2.80672">
        <ele>143.605</ele>
        <time>2017-08-30T09:13:01Z</time>
      </trkpt>
      <trkpt lat="48.44527" lon="2.80659">
        <ele>143.605</ele>
        <time>2017-08-30T09:13:21Z</time>
      </trkpt>
      <trkpt lat="48.44536" lon="2.80649">
        <ele>143.602</ele>
        <time>2017-08-30T09:13:32Z</time>
      </trkpt>
      <trkpt lat="48.44554" lon="2.80635">
        <ele>143.611</ele>
        <time>2017-08-30T09:13:49Z</time>
      </trkpt>
      <trkpt lat="48.44574" lon="2.80625">
        <ele>143.611</ele>
        <time>2017-08-30T09:14:02Z</time>
      </trkpt>
      <trkpt lat="48.44583" lon="2.80618">
        <ele>143.598</ele>
        <time>2017-08-30T09:14:10Z</time>
      </trkpt>
      <trkpt lat="48.44596" lon="2.80613">
        <ele>143.584</ele>
        <time>2017-08-30T09:14:19Z</time>
      </trkpt>
      <trkpt lat="48.44613" lon="2.80599">
        <ele>143.56</ele>
        <time>2017-08-30T09:14:33Z</time>
      </trkpt>
      <trkpt lat="48.44631" lon="2.80584">
        <ele>143.541</ele>
        <time>2017-08-30T09:14:50Z</time>
      </trkpt>
      <trkpt lat="48.44644" lon="2.80579">
        <ele>143.535</ele>
        <time>2017-08-30T09:15:01Z</time>
      </trkpt>
      <trkpt lat="48.44658" lon="2.80571">
        <ele>143.533</ele>
        <time>2017-08-30T09:15:12Z</time>
      </trkpt>
      <trkpt lat="48.44673" lon="2.80559">
        <ele>143.536</ele>
        <time>2017-08-30T09:15:23Z</time>
      </trkpt>
      <trkpt lat="48.4469" lon="2.80553">
        <ele>143.54</ele>
        <time>2017-08-30T09:15:37Z</time>
      </trkpt>
      <trkpt lat="48.44711" lon="2.80537">
        <ele>143.54</ele>
        <time>2017-08-30T09:15:54Z</time>
      </trkpt>
      <trkpt lat="48.44727" lon="2.8052">
        <ele>143.526</ele>
        <time>2017-08-30T09:16:14Z</time>
      </trkpt>
      <trkpt lat="48.44746" lon="2.80506">
        <ele>143.495</ele>
        <time>2017-08-30T09:16:33Z</time>
      </trkpt>
      <trkpt lat="48.44763" lon="2.80497">
        <ele>143.464</ele>
        <time>2017-08-30T09:16:48Z</time>
      </trkpt>
      <trkpt lat="48.44785" lon="2.80479">
        <ele>143.425</ele>
        <time>2017-08-30T09:17:06Z</time>
      </trkpt>
      <trkpt lat="48.448" lon="2.80467">
        <ele>143.384</ele>
        <time>2017-08-30T09:17:22Z</time>
      </trkpt>
      <trkpt lat="48.44817" lon="2.80455">
        <ele>143.342</ele>
        <time>2017-08-30T09:17:37Z</time>
      </trkpt>
      <trkpt lat="48.44836" lon="2.80445">
        <ele>143.311</ele>
        <time>2017-08-30T09:17:51Z</time>
      </trkpt>
      <trkpt lat="48.44844" lon="2.80439">
        <ele>143.297</ele>
        <time>2017-08-30T09:17:59Z</time>
      </trkpt>
      <trkpt lat="48.44858" lon="2.80427">
        <ele>143.274</ele>
        <time>2017-08-30T09:18:12Z</time>
      </trkpt>
      <trkpt lat="48.44872" lon="2.8042">
        <ele>143.257</ele>
        <time>2017-08-30T09:18:25Z</time>
      </trkpt>
      <trkpt lat="48.44887" lon="2.80413">
        <ele>143.239</ele>
        <time>2017-08-30T09:18:38Z</time>
      </trkpt>
      <trkpt lat="48.44898" lon="2.80408">
        <ele>143.223</ele>
        <time>2017-08-30T09:18:49Z</time>
      </trkpt>
      <trkpt lat="48.44898" lon="2.80408">
        <ele>143.223</ele>
        <time>2017-08-30T09:18:56Z</time>
      </trkpt>
      <trkpt lat="48.44898" lon="2.80408">
        <ele>100</ele>
        <time>2017-08-30T09:18:56Z</time>
      </trkpt>
      <trkpt lat="48.44898" lon="2.80408">
        <ele>100</ele>
        <time>2017-08-30T09:19:32Z</time>
      </trkpt>
      <trkpt lat="48.44922" lon="2.80389">
        <ele>143.136</ele>
        <time>2017-08-30T09:19:32Z</time>
      </trkpt>
      <trkpt lat="48.44936" lon="2.8038">
        <ele>143.145</ele>
        <time>2017-08-30T09:19:45Z</time>
      </trkpt>
      <trkpt lat="48.44949" lon="2.8037">
        <ele>143.163</ele>
        <time>2017-08-30T09:20:01Z</time>
      </trkpt>
      <trkpt lat="48.4496" lon="2.80363">
        <ele>143.177</ele>
        <time>2017-08-30T09:20:11Z</time>
      </trkpt>
      <trkpt lat="48.44981" lon="2.80353">
        <ele>143.194</ele>
        <time>2017-08-30T09:20:27Z</time>
      </trkpt>
      <trkpt lat="48.4499" lon="2.80346">
        <ele>143.199</ele>
        <time>2017-08-30T09:20:35Z</time>
      </trkpt>
      <trkpt lat="48.45" lon="2.8034">
        <ele>143.201</ele>
        <time>2017-08-30T09:20:42Z</time>
      </trkpt>
      <trkpt lat="48.45019" lon="2.80334">
        <ele>143.201</ele>
        <time>2017-08-30T09:20:55Z</time>
      </trkpt>
      <trkpt lat="48.45028" lon="2.80325">
        <ele>143.196</ele>
        <time>2017-08-30T09:21:06Z</time>
      </trkpt>
      <trkpt lat="48.45047" lon="2.80317">
        <ele>143.189</ele>
        <time>2017-08-30T09:21:19Z</time>
      </trkpt>
      <trkpt lat="48.45061" lon="2.80306">
        <ele>143.2</ele>
        <time>2017-08-30T09:21:34Z</time>
      </trkpt>
      <trkpt lat="48.45076" lon="2.80293">
        <ele>143.204</ele>
        <time>2017-08-30T09:21:55Z</time>
      </trkpt>
      <trkpt lat="48.45087" lon="2.80286">
        <ele>143.199</ele>
        <time>2017-08-30T09:22:09Z</time>
      </trkpt>
      <trkpt lat="48.45097" lon="2.80279">
        <ele>143.197</ele>
        <time>2017-08-30T09:22:20Z</time>
      </trkpt>
      <trkpt lat="48.45107" lon="2.80271">
        <ele>143.196</ele>
        <time>2017-08-30T09:22:29Z</time>
      </trkpt>
      <trkpt lat="48.45118" lon="2.80266">
        <ele>143.199</ele>
        <time>2017-08-30T09:22:37Z</time>
      </trkpt>
      <trkpt lat="48.45132" lon="2.80259">
        <ele>143.21</ele>
        <time>2017-08-30T09:22:51Z</time>
      </trkpt>
      <trkpt lat="48.45153" lon="2.80247">
        <ele>143.233</ele>
        <time>2017-08-30T09:23:07Z</time>
      </trkpt>
      <trkpt lat="48.45167" lon="2.80239">
        <ele>143.243</ele>
        <time>2017-08-30T09:23:20Z</time>
      </trkpt>
      <trkpt lat="48.45189" lon="2.80223">
        <ele>143.258</ele>
        <time>2017-08-30T09:23:43Z</time>
      </trkpt>
      <trkpt lat="48.452" lon="2.80213">
        <ele>143.263</ele>
        <time>2017-08-30T09:23:52Z</time>
      </trkpt>
      <trkpt lat="48.45214" lon="2.80204">
        <ele>143.268</ele>
        <time>2017-08-30T09:24:06Z</time>
      </trkpt>
      <trkpt lat="48.45226" lon="2.80198">
        <ele>143.278</ele>
        <time>2017-08-30T09:24:19Z</time>
      </trkpt>
      <trkpt lat="48.45247" lon="2.80183">
        <ele>143.296</ele>
        <time>2017-08-30T09:24:38Z</time>
      </trkpt>
      <trkpt lat="48.45261" lon="2.80181">
        <ele>143.307</ele>
        <time>2017-08-30T09:24:55Z</time>
      </trkpt>
      <trkpt lat="48.4527" lon="2.80198">
        <ele>143.302</ele>
        <time>2017-08-30T09:25:08Z</time>
      </trkpt>
      <trkpt lat="48.4527" lon="2.80198">
        <ele>143.302</ele>
        <time>2017-08-30T09:25:15Z</time>
      </trkpt>
      <trkpt lat="48.4527" lon="2.80198">
        <ele>100</ele>
        <time>2017-08-30T09:25:15Z</time>
      </trkpt>
      <trkpt lat="48.4527" lon="2.80198">
        <ele>100</ele>
        <time>2017-08-30T09:25:24Z</time>
      </trkpt>
      <trkpt lat="48.45283" lon="2.8021">
        <ele>143.308</ele>
        <time>2017-08-30T09:25:24Z</time>
      </trkpt>
      <trkpt lat="48.45289" lon="2.8022">
        <ele>143.318</ele>
        <time>2017-08-30T09:25:33Z</time>
      </trkpt>
      <trkpt lat="48.45289" lon="2.8022">
        <ele>100</ele>
        <time>2017-08-30T09:25:40Z</time>
      </trkpt>
      <trkpt lat="48.45289" lon="2.8022">
        <ele>100</ele>
        <time>2017-08-30T09:25:48Z</time>
      </trkpt>
      <trkpt lat="48.45296" lon="2.80216">
        <ele>143.346</ele>
        <time>2017-08-30T09:25:48Z</time>
      </trkpt>
      <trkpt lat="48.45306" lon="2.80209">
        <ele>143.381</ele>
        <time>2017-08-30T09:25:58Z</time>
      </trkpt>
      <trkpt lat="48.45319" lon="2.80198">
        <ele>143.453</ele>
        <time>2017-08-30T09:26:18Z</time>
      </trkpt>
      <trkpt lat="48.45345" lon="2.80168">
        <ele>143.631</ele>
        <time>2017-08-30T09:27:07Z</time>
      </trkpt>
      <trkpt lat="48.45356" lon="2.80152">
        <ele>143.698</ele>
        <time>2017-08-30T09:27:20Z</time>
      </trkpt>
      <trkpt lat="48.45374" lon="2.80134">
        <ele>143.792</ele>
        <time>2017-08-30T09:27:40Z</time>
      </trkpt>
      <trkpt lat="48.45389" lon="2.80114">
        <ele>143.852</ele>
        <time>2017-08-30T09:27:56Z</time>
      </trkpt>
      <trkpt lat="48.45396" lon="2.80106">
        <ele>143.884</ele>
        <time>2017-08-30T09:28:04Z</time>
      </trkpt>
      <trkpt lat="48.45414" lon="2.80087">
        <ele>143.931</ele>
        <time>2017-08-30T09:28:25Z</time>
      </trkpt>
      <trkpt lat="48.4543" lon="2.8007">
        <ele>143.958</ele>
        <time>2017-08-30T09:28:47Z</time>
      </trkpt>
      <trkpt lat="48.45433" lon="2.80043">
        <ele>143.974</ele>
        <time>2017-08-30T09:29:08Z</time>
      </trkpt>
      <trkpt lat="48.45444" lon="2.80023">
        <ele>143.994</ele>
        <time>2017-08-30T09:29:26Z</time>
      </trkpt>
      <trkpt lat="48.45457" lon="2.80013">
        <ele>143.997</ele>
        <time>2017-08-30T09:29:37Z</time>
      </trkpt>
      <trkpt lat="48.45464" lon="2.79986">
        <ele>144.002</ele>
        <time>2017-08-30T09:29:53Z</time>
      </trkpt>
      <trkpt lat="48.45468" lon="2.7997">
        <ele>144.013</ele>
        <time>2017-08-30T09:30:03Z</time>
      </trkpt>
      <trkpt lat="48.45479" lon="2.79942">
        <ele>144.006</ele>
        <time>2017-08-30T09:30:23Z</time>
      </trkpt>
      <trkpt lat="48.45491" lon="2.79926">
        <ele>143.985</ele>
        <time>2017-08-30T09:30:37Z</time>
      </trkpt>
      <trkpt lat="48.45505" lon="2.79908">
        <ele>143.957</ele>
        <time>2017-08-30T09:30:54Z</time>
      </trkpt>
      <trkpt lat="48.45513" lon="2.79896">
        <ele>143.956</ele>
        <time>2017-08-30T09:31:05Z</time>
      </trkpt>
      <trkpt lat="48.4552" lon="2.79887">
        <ele>143.964</ele>
        <time>2017-08-30T09:31:12Z</time>
      </trkpt>
      <trkpt lat="48.45533" lon="2.79868">
        <ele>143.987</ele>
        <time>2017-08-30T09:31:27Z</time>
      </trkpt>
      <trkpt lat="48.45548" lon="2.79847">
        <ele>143.998</ele>
        <time>2017-08-30T09:31:43Z</time>
      </trkpt>
      <trkpt lat="48.45553" lon="2.79837">
        <ele>144.004</ele>
        <time>2017-08-30T09:31:53Z</time>
      </trkpt>
      <trkpt lat="48.45564" lon="2.79822">
        <ele>144.009</ele>
        <time>2017-08-30T09:32:06Z</time>
      </trkpt>
      <trkpt lat="48.45574" lon="2.79809">
        <ele>144.019</ele>
        <time>2017-08-30T09:32:18Z</time>
      </trkpt>
      <trkpt lat="48.45584" lon="2.79797">
        <ele>144.034</ele>
        <time>2017-08-30T09:32:28Z</time>
      </trkpt>
      <trkpt lat="48.45602" lon="2.79776">
        <ele>144.044</ele>
        <time>2017-08-30T09:32:46Z</time>
      </trkpt>
      <trkpt lat="48.45618" lon="2.79761">
        <ele>144.058</ele>
        <time>2017-08-30T09:33:00Z</time>
      </trkpt>
      <trkpt lat="48.45637" lon="2.79741">
        <ele>144.072</ele>
        <time>2017-08-30T09:33:17Z</time>
      </trkpt>
      <trkpt lat="48.45649" lon="2.79727">
        <ele>144.071</ele>
        <time>2017-08-30T09:33:29Z</time>
      </trkpt>
      <trkpt lat="48.45662" lon="2.79709">
        <ele>144.06</ele>
        <time>2017-08-30T09:33:43Z</time>
      </trkpt>
      <trkpt lat="48.45672" lon="2.79707">
        <ele>144.063</ele>
        <time>2017-08-30T09:33:51Z</time>
      </trkpt>
      <trkpt lat="48.4568" lon="2.79698">
        <ele>144.082</ele>
        <time>2017-08-30T09:33:59Z</time>
      </trkpt>
      <trkpt lat="48.4569" lon="2.79673">
        <ele>144.157</ele>
        <time>2017-08-30T09:34:14Z</time>
      </trkpt>
      <trkpt lat="48.45702" lon="2.79649">
        <ele>144.236</ele>
        <time>2017-08-30T09:34:29Z</time>
      </trkpt>
      <trkpt lat="48.4571" lon="2.79628">
        <ele>144.311</ele>
        <time>2017-08-30T09:34:46Z</time>
      </trkpt>
      <trkpt lat="48.45705" lon="2.79608">
        <ele>144.362</ele>
        <time>2017-08-30T09:35:00Z</time>
      </trkpt>
      <trkpt lat="48.45693" lon="2.79589">
        <ele>144.408</ele>
        <time>2017-08-30T09:35:17Z</time>
      </trkpt>
      <trkpt lat="48.45679" lon="2.7957">
        <ele>144.442</ele>
        <time>2017-08-30T09:35:32Z</time>
      </trkpt>
      <trkpt lat="48.45672" lon="2.79551">
        <ele>144.458</ele>
        <time>2017-08-30T09:35:42Z</time>
      </trkpt>
      <trkpt lat="48.45665" lon="2.79533">
        <ele>144.474</ele>
        <time>2017-08-30T09:35:54Z</time>
      </trkpt>
      <trkpt lat="48.45658" lon="2.79509">
        <ele>144.484</ele>
        <time>2017-08-30T09:36:08Z</time>
      </trkpt>
      <trkpt lat="48.45652" lon="2.79491">
        <ele>144.496</ele>
        <time>2017-08-30T09:36:18Z</time>
      </trkpt>
      <trkpt lat="48.45649" lon="2.79464">
        <ele>144.5</ele>
        <time>2017-08-30T09:36:34Z</time>
      </trkpt>
      <trkpt lat="48.45642" lon="2.79438">
        <ele>144.484</ele>
        <time>2017-08-30T09:36:54Z</time>
      </trkpt>
      <trkpt lat="48.4564" lon="2.79419">
        <ele>144.457</ele>
        <time>2017-08-30T09:37:10Z</time>
      </trkpt>
      <trkpt lat="48.45631" lon="2.79391">
        <ele>144.41</ele>
        <time>2017-08-30T09:37:30Z</time>
      </trkpt>
      <trkpt lat="48.45627" lon="2.7937">
        <ele>144.375</ele>
        <time>2017-08-30T09:37:43Z</time>
      </trkpt>
      <trkpt lat="48.45625" lon="2.79331">
        <ele>144.315</ele>
        <time>2017-08-30T09:38:03Z</time>
      </trkpt>
      <trkpt lat="48.45626" lon="2.79323">
        <ele>144.298</ele>
        <time>2017-08-30T09:38:08Z</time>
      </trkpt>
      <trkpt lat="48.45626" lon="2.79323">
        <ele>88.7</ele>
        <time>2017-08-30T09:38:15Z</time>
      </trkpt>
      <trkpt lat="48.45626" lon="2.79323">
        <ele>88.7</ele>
        <time>2017-08-30T09:38:18Z</time>
      </trkpt>
      <trkpt lat="48.45625" lon="2.7931">
        <ele>144.252</ele>
        <time>2017-08-30T09:38:18Z</time>
      </trkpt>
      <trkpt lat="48.45625" lon="2.79295">
        <ele>144.204</ele>
        <time>2017-08-30T09:38:26Z</time>
      </trkpt>
      <trkpt lat="48.45627" lon="2.79271">
        <ele>144.099</ele>
        <time>2017-08-30T09:38:42Z</time>
      </trkpt>
      <trkpt lat="48.45628" lon="2.79242">
        <ele>143.965</ele>
        <time>2017-08-30T09:38:58Z</time>
      </trkpt>
      <trkpt lat="48.45626" lon="2.79235">
        <ele>143.923</ele>
        <time>2017-08-30T09:39:03Z</time>
      </trkpt>
      <trkpt lat="48.45626" lon="2.79235">
        <ele>85.5</ele>
        <time>2017-08-30T09:39:10Z</time>
      </trkpt>
      <trkpt lat="48.45626" lon="2.79235">
        <ele>85.5</ele>
        <time>2017-08-30T09:40:39Z</time>
      </trkpt>
      <trkpt lat="48.45626" lon="2.79183">
        <ele>143.287</ele>
        <time>2017-08-30T09:40:39Z</time>
      </trkpt>
      <trkpt lat="48.45626" lon="2.79159">
        <ele>143.129</ele>
        <time>2017-08-30T09:40:53Z</time>
      </trkpt>
      <trkpt lat="48.45625" lon="2.79136">
        <ele>142.943</ele>
        <time>2017-08-30T09:41:08Z</time>
      </trkpt>
      <trkpt lat="48.45625" lon="2.79104">
        <ele>142.707</ele>
        <time>2017-08-30T09:41:25Z</time>
      </trkpt>
      <trkpt lat="48.45625" lon="2.79082">
        <ele>142.499</ele>
        <time>2017-08-30T09:41:40Z</time>
      </trkpt>
      <trkpt lat="48.45628" lon="2.7905">
        <ele>142.233</ele>
        <time>2017-08-30T09:42:00Z</time>
      </trkpt>
      <trkpt lat="48.45631" lon="2.79026">
        <ele>142.008</ele>
        <time>2017-08-30T09:42:18Z</time>
      </trkpt>
      <trkpt lat="48.45645" lon="2.78997">
        <ele>141.79</ele>
        <time>2017-08-30T09:42:36Z</time>
      </trkpt>
      <trkpt lat="48.45651" lon="2.78983">
        <ele>141.697</ele>
        <time>2017-08-30T09:42:44Z</time>
      </trkpt>
      <trkpt lat="48.45665" lon="2.78971">
        <ele>141.507</ele>
        <time>2017-08-30T09:42:58Z</time>
      </trkpt>
      <trkpt lat="48.4568" lon="2.78959">
        <ele>141.249</ele>
        <time>2017-08-30T09:43:16Z</time>
      </trkpt>
      <trkpt lat="48.45698" lon="2.78952">
        <ele>140.988</ele>
        <time>2017-08-30T09:43:36Z</time>
      </trkpt>
      <trkpt lat="48.45709" lon="2.78939">
        <ele>140.844</ele>
        <time>2017-08-30T09:43:44Z</time>
      </trkpt>
      <trkpt lat="48.45709" lon="2.78939">
        <ele>61.1</ele>
        <time>2017-08-30T09:43:51Z</time>
      </trkpt>
      <trkpt lat="48.45709" lon="2.78939">
        <ele>61.1</ele>
        <time>2017-08-30T09:43:55Z</time>
      </trkpt>
      <trkpt lat="48.45714" lon="2.78928">
        <ele>140.675</ele>
        <time>2017-08-30T09:43:55Z</time>
      </trkpt>
      <trkpt lat="48.45717" lon="2.78905">
        <ele>140.372</ele>
        <time>2017-08-30T09:44:10Z</time>
      </trkpt>
      <trkpt lat="48.45717" lon="2.78905">
        <ele>140.372</ele>
        <time>2017-08-30T09:44:17Z</time>
      </trkpt>
      <trkpt lat="48.45717" lon="2.78905">
        <ele>57.3</ele>
        <time>2017-08-30T09:44:17Z</time>
      </trkpt>
      <trkpt lat="48.45717" lon="2.78905">
        <ele>57.3</ele>
        <time>2017-08-30T09:44:30Z</time>
      </trkpt>
      <trkpt lat="48.45711" lon="2.78885">
        <ele>139.937</ele>
        <time>2017-08-30T09:44:30Z</time>
      </trkpt>
      <trkpt lat="48.4571" lon="2.78861">
        <ele>139.626</ele>
        <time>2017-08-30T09:44:41Z</time>
      </trkpt>
      <trkpt lat="48.4571" lon="2.78861">
        <ele>54.6</ele>
        <time>2017-08-30T09:44:48Z</time>
      </trkpt>
      <trkpt lat="48.4571" lon="2.78861">
        <ele>54.6</ele>
        <time>2017-08-30T09:45:37Z</time>
      </trkpt>
      <trkpt lat="48.45701" lon="2.78825">
        <ele>138.1</ele>
        <time>2017-08-30T09:45:37Z</time>
      </trkpt>
      <trkpt lat="48.45693" lon="2.78814">
        <ele>137.786</ele>
        <time>2017-08-30T09:45:47Z</time>
      </trkpt>
      <trkpt lat="48.45683" lon="2.78799">
        <ele>137.421</ele>
        <time>2017-08-30T09:46:00Z</time>
      </trkpt>
      <trkpt lat="48.45669" lon="2.78792">
        <ele>137.023</ele>
        <time>2017-08-30T09:46:14Z</time>
      </trkpt>
      <trkpt lat="48.45649" lon="2.78779">
        <ele>136.502</ele>
        <time>2017-08-30T09:46:33Z</time>
      </trkpt>
      <trkpt lat="48.45636" lon="2.78771">
        <ele>136.019</ele>
        <time>2017-08-30T09:46:50Z</time>
      </trkpt>
      <trkpt lat="48.4566" lon="2.78756">
        <ele>135.361</ele>
        <time>2017-08-30T09:47:18Z</time>
      </trkpt>
      <trkpt lat="48.45676" lon="2.78737">
        <ele>134.922</ele>
        <time>2017-08-30T09:47:37Z</time>
      </trkpt>
      <trkpt lat="48.4568" lon="2.78732">
        <ele>134.776</ele>
        <time>2017-08-30T09:47:44Z</time>
      </trkpt>
      <trkpt lat="48.4568" lon="2.78732">
        <ele>60.4</ele>
        <time>2017-08-30T09:47:51Z</time>
      </trkpt>
      <trkpt lat="48.4568" lon="2.78732">
        <ele>60.4</ele>
        <time>2017-08-30T09:47:54Z</time>
      </trkpt>
      <trkpt lat="48.45685" lon="2.78727">
        <ele>134.561</ele>
        <time>2017-08-30T09:47:54Z</time>
      </trkpt>
      <trkpt lat="48.457" lon="2.78705">
        <ele>134.212</ele>
        <time>2017-08-30T09:48:12Z</time>
      </trkpt>
      <trkpt lat="48.45708" lon="2.78694">
        <ele>134.014</ele>
        <time>2017-08-30T09:48:24Z</time>
      </trkpt>
      <trkpt lat="48.45708" lon="2.78694">
        <ele>64.4</ele>
        <time>2017-08-30T09:48:31Z</time>
      </trkpt>
      <trkpt lat="48.45708" lon="2.78694">
        <ele>64.4</ele>
        <time>2017-08-30T09:48:38Z</time>
      </trkpt>
      <trkpt lat="48.45717" lon="2.78696">
        <ele>133.813</ele>
        <time>2017-08-30T09:48:38Z</time>
      </trkpt>
      <trkpt lat="48.45717" lon="2.78696">
        <ele>133.813</ele>
        <time>2017-08-30T09:48:45Z</time>
      </trkpt>
      <trkpt lat="48.45717" lon="2.78696">
        <ele>66.1</ele>
        <time>2017-08-30T09:48:45Z</time>
      </trkpt>
      <trkpt lat="48.45717" lon="2.78696">
        <ele>66.1</ele>
        <time>2017-08-30T09:49:30Z</time>
      </trkpt>
      <trkpt lat="48.45745" lon="2.78701">
        <ele>132.947</ele>
        <time>2017-08-30T09:49:30Z</time>
      </trkpt>
      <trkpt lat="48.45756" lon="2.78694">
        <ele>132.727</ele>
        <time>2017-08-30T09:49:42Z</time>
      </trkpt>
      <trkpt lat="48.45771" lon="2.78692">
        <ele>132.518</ele>
        <time>2017-08-30T09:49:55Z</time>
      </trkpt>
      <trkpt lat="48.45781" lon="2.78688">
        <ele>132.292</ele>
        <time>2017-08-30T09:50:10Z</time>
      </trkpt>
      <trkpt lat="48.45795" lon="2.78688">
        <ele>132.136</ele>
        <time>2017-08-30T09:50:22Z</time>
      </trkpt>
      <trkpt lat="48.45804" lon="2.78688">
        <ele>132.048</ele>
        <time>2017-08-30T09:50:29Z</time>
      </trkpt>
      <trkpt lat="48.45804" lon="2.78688">
        <ele>132.048</ele>
        <time>2017-08-30T09:50:36Z</time>
      </trkpt>
      <trkpt lat="48.45804" lon="2.78688">
        <ele>74.4</ele>
        <time>2017-08-30T09:50:36Z</time>
      </trkpt>
      <trkpt lat="48.45804" lon="2.78688">
        <ele>74.4</ele>
        <time>2017-08-30T09:51:04Z</time>
      </trkpt>
      <trkpt lat="48.45829" lon="2.78685">
        <ele>131.671</ele>
        <time>2017-08-30T09:51:04Z</time>
      </trkpt>
      <trkpt lat="48.45842" lon="2.78689">
        <ele>131.579</ele>
        <time>2017-08-30T09:51:12Z</time>
      </trkpt>
      <trkpt lat="48.4587" lon="2.78697">
        <ele>131.413</ele>
        <time>2017-08-30T09:51:27Z</time>
      </trkpt>
      <trkpt lat="48.45891" lon="2.78703">
        <ele>131.273</ele>
        <time>2017-08-30T09:51:43Z</time>
      </trkpt>
      <trkpt lat="48.45918" lon="2.78709">
        <ele>131.168</ele>
        <time>2017-08-30T09:52:01Z</time>
      </trkpt>
      <trkpt lat="48.45939" lon="2.78715">
        <ele>131.082</ele>
        <time>2017-08-30T09:52:21Z</time>
      </trkpt>
      <trkpt lat="48.45944" lon="2.78718">
        <ele>131.06</ele>
        <time>2017-08-30T09:52:27Z</time>
      </trkpt>
      <trkpt lat="48.45944" lon="2.78718">
        <ele>80.2</ele>
        <time>2017-08-30T09:52:34Z</time>
      </trkpt>
      <trkpt lat="48.45944" lon="2.78718">
        <ele>80.2</ele>
        <time>2017-08-30T09:53:50Z</time>
      </trkpt>
      <trkpt lat="48.45953" lon="2.78729">
        <ele>131.138</ele>
        <time>2017-08-30T09:53:50Z</time>
      </trkpt>
      <trkpt lat="48.45964" lon="2.78736">
        <ele>131.176</ele>
        <time>2017-08-30T09:53:58Z</time>
      </trkpt>
      <trkpt lat="48.45975" lon="2.78745">
        <ele>131.252</ele>
        <time>2017-08-30T09:54:08Z</time>
      </trkpt>
      <trkpt lat="48.45993" lon="2.78758">
        <ele>131.394</ele>
        <time>2017-08-30T09:54:25Z</time>
      </trkpt>
      <trkpt lat="48.4601" lon="2.7877">
        <ele>131.494</ele>
        <time>2017-08-30T09:54:43Z</time>
      </trkpt>
      <trkpt lat="48.46021" lon="2.78781">
        <ele>131.556</ele>
        <time>2017-08-30T09:54:56Z</time>
      </trkpt>
      <trkpt lat="48.46038" lon="2.78796">
        <ele>131.613</ele>
        <time>2017-08-30T09:55:12Z</time>
      </trkpt>
      <trkpt lat="48.46048" lon="2.7881">
        <ele>131.627</ele>
        <time>2017-08-30T09:55:21Z</time>
      </trkpt>
      <trkpt lat="48.46052" lon="2.7882">
        <ele>131.635</ele>
        <time>2017-08-30T09:55:27Z</time>
      </trkpt>
      <trkpt lat="48.46056" lon="2.78839">
        <ele>131.636</ele>
        <time>2017-08-30T09:55:35Z</time>
      </trkpt>
      <trkpt lat="48.4608" lon="2.78862">
        <ele>131.646</ele>
        <time>2017-08-30T09:55:53Z</time>
      </trkpt>
      <trkpt lat="48.46091" lon="2.7887">
        <ele>131.698</ele>
        <time>2017-08-30T09:56:05Z</time>
      </trkpt>
      <trkpt lat="48.46099" lon="2.78887">
        <ele>131.769</ele>
        <time>2017-08-30T09:56:19Z</time>
      </trkpt>
      <trkpt lat="48.46112" lon="2.78911">
        <ele>131.807</ele>
        <time>2017-08-30T09:56:32Z</time>
      </trkpt>
      <trkpt lat="48.46112" lon="2.78911">
        <ele>82.5</ele>
        <time>2017-08-30T09:56:40Z</time>
      </trkpt>
      <trkpt lat="48.46112" lon="2.78911">
        <ele>82.5</ele>
        <time>2017-08-30T09:57:12Z</time>
      </trkpt>
      <trkpt lat="48.46104" lon="2.78945">
        <ele>131.889</ele>
        <time>2017-08-30T09:57:12Z</time>
      </trkpt>
      <trkpt lat="48.46077" lon="2.7896">
        <ele>131.875</ele>
        <time>2017-08-30T09:57:30Z</time>
      </trkpt>
      <trkpt lat="48.46059" lon="2.78968">
        <ele>131.785</ele>
        <time>2017-08-30T09:57:46Z</time>
      </trkpt>
      <trkpt lat="48.46048" lon="2.78976">
        <ele>131.685</ele>
        <time>2017-08-30T09:57:59Z</time>
      </trkpt>
      <trkpt lat="48.46035" lon="2.78984">
        <ele>131.492</ele>
        <time>2017-08-30T09:58:15Z</time>
      </trkpt>
      <trkpt lat="48.46028" lon="2.78993">
        <ele>131.382</ele>
        <time>2017-08-30T09:58:24Z</time>
      </trkpt>
      <trkpt lat="48.46028" lon="2.78993">
        <ele>67.5</ele>
        <time>2017-08-30T09:58:31Z</time>
      </trkpt>
      <trkpt lat="48.46028" lon="2.78993">
        <ele>67.5</ele>
        <time>2017-08-30T09:59:12Z</time>
      </trkpt>
      <trkpt lat="48.45999" lon="2.79021">
        <ele>130.436</ele>
        <time>2017-08-30T09:59:12Z</time>
      </trkpt>
      <trkpt lat="48.45997" lon="2.79023">
        <ele>130.341</ele>
        <time>2017-08-30T09:59:16Z</time>
      </trkpt>
      <trkpt lat="48.45997" lon="2.79023">
        <ele>58.9</ele>
        <time>2017-08-30T09:59:24Z</time>
      </trkpt>
      <trkpt lat="48.45997" lon="2.79023">
        <ele>58.9</ele>
        <time>2017-08-30T09:59:29Z</time>
      </trkpt>
      <trkpt lat="48.45994" lon="2.79037">
        <ele>130.094</ele>
        <time>2017-08-30T09:59:29Z</time>
      </trkpt>
      <trkpt lat="48.4598" lon="2.79048">
        <ele>129.842</ele>
        <time>2017-08-30T09:59:40Z</time>
      </trkpt>
      <trkpt lat="48.45977" lon="2.79054">
        <ele>129.753</ele>
        <time>2017-08-30T09:59:44Z</time>
      </trkpt>
      <trkpt lat="48.45977" lon="2.79054">
        <ele>55.5</ele>
        <time>2017-08-30T09:59:49Z</time>
      </trkpt>
      <trkpt lat="48.45977" lon="2.79054">
        <ele>55.5</ele>
        <time>2017-08-30T09:59:54Z</time>
      </trkpt>
      <trkpt lat="48.45968" lon="2.79061">
        <ele>129.524</ele>
        <time>2017-08-30T09:59:54Z</time>
      </trkpt>
      <trkpt lat="48.45968" lon="2.79061">
        <ele>129.524</ele>
        <time>2017-08-30T10:00:02Z</time>
      </trkpt>
      <trkpt lat="48.45968" lon="2.79061">
        <ele>55</ele>
        <time>2017-08-30T10:00:02Z</time>
      </trkpt>
      <trkpt lat="48.45968" lon="2.79061">
        <ele>55</ele>
        <time>2017-08-30T10:00:32Z</time>
      </trkpt>
      <trkpt lat="48.45976" lon="2.79088">
        <ele>128.77</ele>
        <time>2017-08-30T10:00:32Z</time>
      </trkpt>
      <trkpt lat="48.45978" lon="2.79096">
        <ele>128.732</ele>
        <time>2017-08-30T10:00:34Z</time>
      </trkpt>
      <trkpt lat="48.45978" lon="2.79096">
        <ele>55.5</ele>
        <time>2017-08-30T10:00:39Z</time>
      </trkpt>
      <trkpt lat="48.45978" lon="2.79096">
        <ele>55.5</ele>
        <time>2017-08-30T10:01:22Z</time>
      </trkpt>
      <trkpt lat="48.45975" lon="2.79136">
        <ele>127.881</ele>
        <time>2017-08-30T10:01:22Z</time>
      </trkpt>
      <trkpt lat="48.45972" lon="2.79144">
        <ele>127.822</ele>
        <time>2017-08-30T10:01:26Z</time>
      </trkpt>
      <trkpt lat="48.45972" lon="2.79144">
        <ele>56.2</ele>
        <time>2017-08-30T10:01:31Z</time>
      </trkpt>
      <trkpt lat="48.45972" lon="2.79144">
        <ele>56.2</ele>
        <time>2017-08-30T10:01:34Z</time>
      </trkpt>
      <trkpt lat="48.45966" lon="2.79155">
        <ele>127.718</ele>
        <time>2017-08-30T10:01:34Z</time>
      </trkpt>
      <trkpt lat="48.45961" lon="2.7916">
        <ele>127.655</ele>
        <time>2017-08-30T10:01:39Z</time>
      </trkpt>
      <trkpt lat="48.45961" lon="2.7916">
        <ele>57.1</ele>
        <time>2017-08-30T10:01:46Z</time>
      </trkpt>
      <trkpt lat="48.45961" lon="2.7916">
        <ele>57.1</ele>
        <time>2017-08-30T10:01:53Z</time>
      </trkpt>
      <trkpt lat="48.45964" lon="2.79169">
        <ele>127.458</ele>
        <time>2017-08-30T10:01:53Z</time>
      </trkpt>
      <trkpt lat="48.45964" lon="2.79169">
        <ele>127.458</ele>
        <time>2017-08-30T10:02:00Z</time>
      </trkpt>
      <trkpt lat="48.45964" lon="2.79169">
        <ele>57.3</ele>
        <time>2017-08-30T10:02:00Z</time>
      </trkpt>
      <trkpt lat="48.45964" lon="2.79169">
        <ele>57.3</ele>
        <time>2017-08-30T10:02:50Z</time>
      </trkpt>
      <trkpt lat="48.4596" lon="2.79213">
        <ele>127.034</ele>
        <time>2017-08-30T10:02:50Z</time>
      </trkpt>
      <trkpt lat="48.45958" lon="2.7923">
        <ele>126.927</ele>
        <time>2017-08-30T10:03:01Z</time>
      </trkpt>
      <trkpt lat="48.45964" lon="2.79255">
        <ele>126.812</ele>
        <time>2017-08-30T10:03:13Z</time>
      </trkpt>
      <trkpt lat="48.45984" lon="2.79293">
        <ele>126.583</ele>
        <time>2017-08-30T10:03:34Z</time>
      </trkpt>
      <trkpt lat="48.45989" lon="2.79313">
        <ele>126.47</ele>
        <time>2017-08-30T10:03:50Z</time>
      </trkpt>
      <trkpt lat="48.45998" lon="2.79326">
        <ele>126.378</ele>
        <time>2017-08-30T10:04:02Z</time>
      </trkpt>
      <trkpt lat="48.46005" lon="2.79338">
        <ele>126.327</ele>
        <time>2017-08-30T10:04:11Z</time>
      </trkpt>
      <trkpt lat="48.46005" lon="2.79338">
        <ele>61.8</ele>
        <time>2017-08-30T10:04:18Z</time>
      </trkpt>
      <trkpt lat="48.46005" lon="2.79338">
        <ele>61.8</ele>
        <time>2017-08-30T10:04:24Z</time>
      </trkpt>
      <trkpt lat="48.46013" lon="2.79349">
        <ele>126.252</ele>
        <time>2017-08-30T10:04:24Z</time>
      </trkpt>
      <trkpt lat="48.46019" lon="2.79361">
        <ele>126.206</ele>
        <time>2017-08-30T10:04:31Z</time>
      </trkpt>
      <trkpt lat="48.46019" lon="2.79361">
        <ele>62</ele>
        <time>2017-08-30T10:04:38Z</time>
      </trkpt>
      <trkpt lat="48.46019" lon="2.79361">
        <ele>62</ele>
        <time>2017-08-30T10:04:46Z</time>
      </trkpt>
      <trkpt lat="48.46024" lon="2.79372">
        <ele>126.125</ele>
        <time>2017-08-30T10:04:46Z</time>
      </trkpt>
      <trkpt lat="48.46036" lon="2.79402">
        <ele>125.972</ele>
        <time>2017-08-30T10:05:02Z</time>
      </trkpt>
      <trkpt lat="48.46043" lon="2.79422">
        <ele>125.811</ele>
        <time>2017-08-30T10:05:17Z</time>
      </trkpt>
      <trkpt lat="48.46052" lon="2.79445">
        <ele>125.537</ele>
        <time>2017-08-30T10:05:36Z</time>
      </trkpt>
      <trkpt lat="48.46063" lon="2.79455">
        <ele>125.328</ele>
        <time>2017-08-30T10:05:48Z</time>
      </trkpt>
      <trkpt lat="48.46076" lon="2.79476">
        <ele>125.037</ele>
        <time>2017-08-30T10:06:04Z</time>
      </trkpt>
      <trkpt lat="48.46086" lon="2.79497">
        <ele>124.773</ele>
        <time>2017-08-30T10:06:16Z</time>
      </trkpt>
      <trkpt lat="48.46086" lon="2.79497">
        <ele>67.1</ele>
        <time>2017-08-30T10:06:23Z</time>
      </trkpt>
      <trkpt lat="48.46086" lon="2.79497">
        <ele>67.1</ele>
        <time>2017-08-30T10:06:37Z</time>
      </trkpt>
      <trkpt lat="48.46097" lon="2.79522">
        <ele>124.462</ele>
        <time>2017-08-30T10:06:37Z</time>
      </trkpt>
      <trkpt lat="48.46102" lon="2.79527">
        <ele>124.399</ele>
        <time>2017-08-30T10:06:41Z</time>
      </trkpt>
      <trkpt lat="48.46102" lon="2.79527">
        <ele>67.9</ele>
        <time>2017-08-30T10:06:46Z</time>
      </trkpt>
      <trkpt lat="48.46102" lon="2.79527">
        <ele>67.9</ele>
        <time>2017-08-30T10:06:53Z</time>
      </trkpt>
      <trkpt lat="48.46107" lon="2.79536">
        <ele>124.184</ele>
        <time>2017-08-30T10:06:53Z</time>
      </trkpt>
      <trkpt lat="48.46123" lon="2.79565">
        <ele>123.931</ele>
        <time>2017-08-30T10:07:09Z</time>
      </trkpt>
      <trkpt lat="48.46129" lon="2.79578">
        <ele>123.759</ele>
        <time>2017-08-30T10:07:23Z</time>
      </trkpt>
      <trkpt lat="48.46138" lon="2.7962">
        <ele>122.977</ele>
        <time>2017-08-30T10:08:11Z</time>
      </trkpt>
      <trkpt lat="48.46122" lon="2.79644">
        <ele>122.505</ele>
        <time>2017-08-30T10:08:37Z</time>
      </trkpt>
      <trkpt lat="48.4611" lon="2.79646">
        <ele>122.336</ele>
        <time>2017-08-30T10:08:44Z</time>
      </trkpt>
      <trkpt lat="48.46102" lon="2.79653">
        <ele>122.122</ele>
        <time>2017-08-30T10:08:54Z</time>
      </trkpt>
      <trkpt lat="48.46102" lon="2.79653">
        <ele>77.2</ele>
        <time>2017-08-30T10:09:02Z</time>
      </trkpt>
      <trkpt lat="48.46102" lon="2.79653">
        <ele>77.2</ele>
        <time>2017-08-30T10:09:06Z</time>
      </trkpt>
      <trkpt lat="48.46096" lon="2.79661">
        <ele>121.9</ele>
        <time>2017-08-30T10:09:06Z</time>
      </trkpt>
      <trkpt lat="48.46082" lon="2.79687">
        <ele>121.588</ele>
        <time>2017-08-30T10:09:24Z</time>
      </trkpt>
      <trkpt lat="48.46073" lon="2.79699">
        <ele>121.455</ele>
        <time>2017-08-30T10:09:34Z</time>
      </trkpt>
      <trkpt lat="48.46073" lon="2.79699">
        <ele>80.5</ele>
        <time>2017-08-30T10:09:42Z</time>
      </trkpt>
      <trkpt lat="48.46073" lon="2.79699">
        <ele>80.5</ele>
        <time>2017-08-30T10:09:47Z</time>
      </trkpt>
      <trkpt lat="48.46065" lon="2.79712">
        <ele>121.314</ele>
        <time>2017-08-30T10:09:47Z</time>
      </trkpt>
      <trkpt lat="48.46055" lon="2.79727">
        <ele>121.23</ele>
        <time>2017-08-30T10:09:59Z</time>
      </trkpt>
      <trkpt lat="48.46046" lon="2.79734">
        <ele>121.189</ele>
        <time>2017-08-30T10:10:07Z</time>
      </trkpt>
      <trkpt lat="48.46034" lon="2.79743">
        <ele>121.152</ele>
        <time>2017-08-30T10:10:18Z</time>
      </trkpt>
      <trkpt lat="48.46019" lon="2.79758">
        <ele>121.188</ele>
        <time>2017-08-30T10:10:36Z</time>
      </trkpt>
      <trkpt lat="48.46007" lon="2.79777">
        <ele>121.261</ele>
        <time>2017-08-30T10:10:55Z</time>
      </trkpt>
      <trkpt lat="48.46007" lon="2.79777">
        <ele>121.261</ele>
        <time>2017-08-30T10:11:01Z</time>
      </trkpt>
      <trkpt lat="48.46007" lon="2.79777">
        <ele>85.7</ele>
        <time>2017-08-30T10:11:01Z</time>
      </trkpt>
      <trkpt lat="48.46007" lon="2.79777">
        <ele>85.7</ele>
        <time>2017-08-30T10:11:06Z</time>
      </trkpt>
      <trkpt lat="48.45999" lon="2.79785">
        <ele>121.337</ele>
        <time>2017-08-30T10:11:06Z</time>
      </trkpt>
      <trkpt lat="48.45999" lon="2.79785">
        <ele>121.337</ele>
        <time>2017-08-30T10:11:13Z</time>
      </trkpt>
      <trkpt lat="48.45999" lon="2.79785">
        <ele>86.3</ele>
        <time>2017-08-30T10:11:13Z</time>
      </trkpt>
      <trkpt lat="48.45999" lon="2.79785">
        <ele>86.3</ele>
        <time>2017-08-30T10:11:31Z</time>
      </trkpt>
      <trkpt lat="48.45982" lon="2.7979">
        <ele>121.426</ele>
        <time>2017-08-30T10:11:31Z</time>
      </trkpt>
      <trkpt lat="48.45982" lon="2.7979">
        <ele>121.426</ele>
        <time>2017-08-30T10:13:57Z</time>
      </trkpt>
      <trkpt lat="48.45992" lon="2.79815">
        <ele>126.133</ele>
        <time>2017-08-30T10:16:24Z</time>
      </trkpt>
      <trkpt lat="48.45997" lon="2.79822">
        <ele>126.265</ele>
        <time>2017-08-30T10:16:32Z</time>
      </trkpt>
      <trkpt lat="48.46002" lon="2.79844">
        <ele>126.52</ele>
        <time>2017-08-30T10:16:48Z</time>
      </trkpt>
      <trkpt lat="48.46008" lon="2.79863">
        <ele>126.744</ele>
        <time>2017-08-30T10:17:02Z</time>
      </trkpt>
      <trkpt lat="48.46014" lon="2.79879">
        <ele>126.944</ele>
        <time>2017-08-30T10:17:12Z</time>
      </trkpt>
      <trkpt lat="48.46025" lon="2.79899">
        <ele>127.3</ele>
        <time>2017-08-30T10:17:29Z</time>
      </trkpt>
      <trkpt lat="48.46032" lon="2.79909">
        <ele>127.48</ele>
        <time>2017-08-30T10:17:37Z</time>
      </trkpt>
      <trkpt lat="48.46038" lon="2.79937">
        <ele>127.811</ele>
        <time>2017-08-30T10:17:55Z</time>
      </trkpt>
      <trkpt lat="48.46025" lon="2.79966">
        <ele>127.912</ele>
        <time>2017-08-30T10:18:11Z</time>
      </trkpt>
      <trkpt lat="48.46015" lon="2.79983">
        <ele>127.982</ele>
        <time>2017-08-30T10:18:21Z</time>
      </trkpt>
      <trkpt lat="48.46015" lon="2.79983">
        <ele>127.982</ele>
        <time>2017-08-30T10:18:26Z</time>
      </trkpt>
      <trkpt lat="48.46015" lon="2.79983">
        <ele>90.8</ele>
        <time>2017-08-30T10:18:26Z</time>
      </trkpt>
      <trkpt lat="48.46015" lon="2.79983">
        <ele>90.8</ele>
        <time>2017-08-30T10:19:05Z</time>
      </trkpt>
      <trkpt lat="48.46002" lon="2.80024">
        <ele>128.242</ele>
        <time>2017-08-30T10:19:05Z</time>
      </trkpt>
      <trkpt lat="48.45989" lon="2.80034">
        <ele>128.396</ele>
        <time>2017-08-30T10:19:16Z</time>
      </trkpt>
      <trkpt lat="48.45989" lon="2.80034">
        <ele>92.5</ele>
        <time>2017-08-30T10:19:24Z</time>
      </trkpt>
      <trkpt lat="48.45989" lon="2.80034">
        <ele>92.5</ele>
        <time>2017-08-30T10:19:28Z</time>
      </trkpt>
      <trkpt lat="48.45984" lon="2.80039">
        <ele>128.574</ele>
        <time>2017-08-30T10:19:28Z</time>
      </trkpt>
      <trkpt lat="48.45984" lon="2.80039">
        <ele>128.574</ele>
        <time>2017-08-30T10:19:35Z</time>
      </trkpt>
      <trkpt lat="48.45984" lon="2.80039">
        <ele>92.8</ele>
        <time>2017-08-30T10:19:35Z</time>
      </trkpt>
      <trkpt lat="48.45984" lon="2.80039">
        <ele>92.8</ele>
        <time>2017-08-30T10:53:37Z</time>
      </trkpt>
      <trkpt lat="48.4597" lon="2.8">
        <ele>159.903</ele>
        <time>2017-08-30T10:53:37Z</time>
      </trkpt>
      <trkpt lat="48.45968" lon="2.79972">
        <ele>159.813</ele>
        <time>2017-08-30T10:53:56Z</time>
      </trkpt>
      <trkpt lat="48.45994" lon="2.79997">
        <ele>159.586</ele>
        <time>2017-08-30T10:54:37Z</time>
      </trkpt>
      <trkpt lat="48.45996" lon="2.79998">
        <ele>159.575</ele>
        <time>2017-08-30T10:54:39Z</time>
      </trkpt>
      <trkpt lat="48.45996" lon="2.79998">
        <ele>92.1</ele>
        <time>2017-08-30T10:54:44Z</time>
      </trkpt>
      <trkpt lat="48.45996" lon="2.79998">
        <ele>92.1</ele>
        <time>2017-08-30T10:59:12Z</time>
      </trkpt>
      <trkpt lat="48.45976" lon="2.80037">
        <ele>158.905</ele>
        <time>2017-08-30T10:59:12Z</time>
      </trkpt>
      <trkpt lat="48.45993" lon="2.80003">
        <ele>158.345</ele>
        <time>2017-08-30T11:00:49Z</time>
      </trkpt>
      <trkpt lat="48.45987" lon="2.79959">
        <ele>157.868</ele>
        <time>2017-08-30T11:01:27Z</time>
      </trkpt>
      <trkpt lat="48.45987" lon="2.79952">
        <ele>157.818</ele>
        <time>2017-08-30T11:01:31Z</time>
      </trkpt>
      <trkpt lat="48.45987" lon="2.79952">
        <ele>91.6</ele>
        <time>2017-08-30T11:01:38Z</time>
      </trkpt>
      <trkpt lat="48.45987" lon="2.79952">
        <ele>91.6</ele>
        <time>2017-08-30T11:03:39Z</time>
      </trkpt>
      <trkpt lat="48.45999" lon="2.79976">
        <ele>157.376</ele>
        <time>2017-08-30T11:03:39Z</time>
      </trkpt>
      <trkpt lat="48.46002" lon="2.79998">
        <ele>157.352</ele>
        <time>2017-08-30T11:03:53Z</time>
      </trkpt>
      <trkpt lat="48.46005" lon="2.80019">
        <ele>157.355</ele>
        <time>2017-08-30T11:04:12Z</time>
      </trkpt>
      <trkpt lat="48.46014" lon="2.80052">
        <ele>157.398</ele>
        <time>2017-08-30T11:04:38Z</time>
      </trkpt>
      <trkpt lat="48.4602" lon="2.8007">
        <ele>157.412</ele>
        <time>2017-08-30T11:04:50Z</time>
      </trkpt>
      <trkpt lat="48.4602" lon="2.8007">
        <ele>92.8</ele>
        <time>2017-08-30T11:04:57Z</time>
      </trkpt>
      <trkpt lat="48.4602" lon="2.8007">
        <ele>92.8</ele>
        <time>2017-08-30T11:05:05Z</time>
      </trkpt>
      <trkpt lat="48.46021" lon="2.80082">
        <ele>157.427</ele>
        <time>2017-08-30T11:05:05Z</time>
      </trkpt>
      <trkpt lat="48.46024" lon="2.80108">
        <ele>157.435</ele>
        <time>2017-08-30T11:05:24Z</time>
      </trkpt>
      <trkpt lat="48.46028" lon="2.80136">
        <ele>157.435</ele>
        <time>2017-08-30T11:05:42Z</time>
      </trkpt>
      <trkpt lat="48.46033" lon="2.80164">
        <ele>157.429</ele>
        <time>2017-08-30T11:06:02Z</time>
      </trkpt>
      <trkpt lat="48.46059" lon="2.80177">
        <ele>157.222</ele>
        <time>2017-08-30T11:06:52Z</time>
      </trkpt>
      <trkpt lat="48.46073" lon="2.80182">
        <ele>157.126</ele>
        <time>2017-08-30T11:07:07Z</time>
      </trkpt>
      <trkpt lat="48.46088" lon="2.80202">
        <ele>157.017</ele>
        <time>2017-08-30T11:07:25Z</time>
      </trkpt>
      <trkpt lat="48.46102" lon="2.8022">
        <ele>156.913</ele>
        <time>2017-08-30T11:07:45Z</time>
      </trkpt>
      <trkpt lat="48.46111" lon="2.80235">
        <ele>156.856</ele>
        <time>2017-08-30T11:08:00Z</time>
      </trkpt>
      <trkpt lat="48.46123" lon="2.80261">
        <ele>156.815</ele>
        <time>2017-08-30T11:08:17Z</time>
      </trkpt>
      <trkpt lat="48.46132" lon="2.80279">
        <ele>156.784</ele>
        <time>2017-08-30T11:08:32Z</time>
      </trkpt>
      <trkpt lat="48.46137" lon="2.80302">
        <ele>156.734</ele>
        <time>2017-08-30T11:08:48Z</time>
      </trkpt>
      <trkpt lat="48.46144" lon="2.80318">
        <ele>156.692</ele>
        <time>2017-08-30T11:09:02Z</time>
      </trkpt>
      <trkpt lat="48.46154" lon="2.80345">
        <ele>156.65</ele>
        <time>2017-08-30T11:09:21Z</time>
      </trkpt>
      <trkpt lat="48.46156" lon="2.80352">
        <ele>156.641</ele>
        <time>2017-08-30T11:09:26Z</time>
      </trkpt>
      <trkpt lat="48.46156" lon="2.80352">
        <ele>98.3</ele>
        <time>2017-08-30T11:09:34Z</time>
      </trkpt>
      <trkpt lat="48.46156" lon="2.80352">
        <ele>98.3</ele>
        <time>2017-08-30T11:09:41Z</time>
      </trkpt>
      <trkpt lat="48.46157" lon="2.80362">
        <ele>156.619</ele>
        <time>2017-08-30T11:09:41Z</time>
      </trkpt>
      <trkpt lat="48.46179" lon="2.8034">
        <ele>156.5</ele>
        <time>2017-08-30T11:10:54Z</time>
      </trkpt>
      <trkpt lat="48.46193" lon="2.80334">
        <ele>156.447</ele>
        <time>2017-08-30T11:11:06Z</time>
      </trkpt>
      <trkpt lat="48.46212" lon="2.80323">
        <ele>156.317</ele>
        <time>2017-08-30T11:11:24Z</time>
      </trkpt>
      <trkpt lat="48.46225" lon="2.80326">
        <ele>156.209</ele>
        <time>2017-08-30T11:11:41Z</time>
      </trkpt>
      <trkpt lat="48.46237" lon="2.80345">
        <ele>156.127</ele>
        <time>2017-08-30T11:11:56Z</time>
      </trkpt>
      <trkpt lat="48.46242" lon="2.80363">
        <ele>156.071</ele>
        <time>2017-08-30T11:12:06Z</time>
      </trkpt>
      <trkpt lat="48.4625" lon="2.80377">
        <ele>156.007</ele>
        <time>2017-08-30T11:12:18Z</time>
      </trkpt>
      <trkpt lat="48.4626" lon="2.804">
        <ele>155.957</ele>
        <time>2017-08-30T11:12:34Z</time>
      </trkpt>
      <trkpt lat="48.46271" lon="2.80426">
        <ele>155.915</ele>
        <time>2017-08-30T11:12:53Z</time>
      </trkpt>
      <trkpt lat="48.46276" lon="2.80441">
        <ele>155.873</ele>
        <time>2017-08-30T11:13:03Z</time>
      </trkpt>
      <trkpt lat="48.46284" lon="2.80459">
        <ele>155.817</ele>
        <time>2017-08-30T11:13:17Z</time>
      </trkpt>
      <trkpt lat="48.46296" lon="2.80497">
        <ele>155.74</ele>
        <time>2017-08-30T11:13:38Z</time>
      </trkpt>
      <trkpt lat="48.46304" lon="2.80521">
        <ele>155.677</ele>
        <time>2017-08-30T11:13:54Z</time>
      </trkpt>
      <trkpt lat="48.46317" lon="2.80508">
        <ele>155.577</ele>
        <time>2017-08-30T11:14:12Z</time>
      </trkpt>
      <trkpt lat="48.46333" lon="2.80491">
        <ele>155.444</ele>
        <time>2017-08-30T11:14:31Z</time>
      </trkpt>
      <trkpt lat="48.46346" lon="2.80483">
        <ele>155.352</ele>
        <time>2017-08-30T11:14:45Z</time>
      </trkpt>
      <trkpt lat="48.46369" lon="2.80468">
        <ele>155.202</ele>
        <time>2017-08-30T11:15:07Z</time>
      </trkpt>
      <trkpt lat="48.46387" lon="2.80453">
        <ele>155.07</ele>
        <time>2017-08-30T11:15:24Z</time>
      </trkpt>
      <trkpt lat="48.46401" lon="2.80444">
        <ele>154.947</ele>
        <time>2017-08-30T11:15:36Z</time>
      </trkpt>
      <trkpt lat="48.46411" lon="2.80438">
        <ele>154.85</ele>
        <time>2017-08-30T11:15:47Z</time>
      </trkpt>
      <trkpt lat="48.46425" lon="2.80429">
        <ele>154.741</ele>
        <time>2017-08-30T11:16:01Z</time>
      </trkpt>
      <trkpt lat="48.46442" lon="2.8043">
        <ele>154.62</ele>
        <time>2017-08-30T11:16:15Z</time>
      </trkpt>
      <trkpt lat="48.46451" lon="2.80438">
        <ele>154.547</ele>
        <time>2017-08-30T11:16:23Z</time>
      </trkpt>
      <trkpt lat="48.46459" lon="2.80446">
        <ele>154.449</ele>
        <time>2017-08-30T11:16:35Z</time>
      </trkpt>
      <trkpt lat="48.4647" lon="2.80461">
        <ele>154.293</ele>
        <time>2017-08-30T11:16:51Z</time>
      </trkpt>
      <trkpt lat="48.46483" lon="2.80486">
        <ele>154.077</ele>
        <time>2017-08-30T11:17:08Z</time>
      </trkpt>
      <trkpt lat="48.46493" lon="2.80512">
        <ele>153.905</ele>
        <time>2017-08-30T11:17:23Z</time>
      </trkpt>
      <trkpt lat="48.46506" lon="2.80523">
        <ele>153.705</ele>
        <time>2017-08-30T11:17:40Z</time>
      </trkpt>
      <trkpt lat="48.46519" lon="2.80532">
        <ele>153.447</ele>
        <time>2017-08-30T11:17:56Z</time>
      </trkpt>
      <trkpt lat="48.46534" lon="2.80536">
        <ele>153.217</ele>
        <time>2017-08-30T11:18:09Z</time>
      </trkpt>
      <trkpt lat="48.46548" lon="2.80531">
        <ele>152.934</ele>
        <time>2017-08-30T11:18:26Z</time>
      </trkpt>
      <trkpt lat="48.46563" lon="2.80529">
        <ele>152.752</ele>
        <time>2017-08-30T11:18:37Z</time>
      </trkpt>
      <trkpt lat="48.4657" lon="2.8054">
        <ele>152.587</ele>
        <time>2017-08-30T11:18:46Z</time>
      </trkpt>
      <trkpt lat="48.46575" lon="2.80561">
        <ele>152.299</ele>
        <time>2017-08-30T11:19:01Z</time>
      </trkpt>
      <trkpt lat="48.4658" lon="2.80583">
        <ele>152.003</ele>
        <time>2017-08-30T11:19:18Z</time>
      </trkpt>
      <trkpt lat="48.46571" lon="2.80606">
        <ele>151.739</ele>
        <time>2017-08-30T11:19:36Z</time>
      </trkpt>
      <trkpt lat="48.46553" lon="2.80612">
        <ele>151.46</ele>
        <time>2017-08-30T11:19:51Z</time>
      </trkpt>
      <trkpt lat="48.46537" lon="2.8061">
        <ele>151.131</ele>
        <time>2017-08-30T11:20:08Z</time>
      </trkpt>
      <trkpt lat="48.46514" lon="2.80614">
        <ele>150.686</ele>
        <time>2017-08-30T11:20:29Z</time>
      </trkpt>
      <trkpt lat="48.46501" lon="2.80621">
        <ele>150.347</ele>
        <time>2017-08-30T11:20:46Z</time>
      </trkpt>
      <trkpt lat="48.46506" lon="2.80641">
        <ele>150.091</ele>
        <time>2017-08-30T11:21:00Z</time>
      </trkpt>
      <trkpt lat="48.46513" lon="2.80667">
        <ele>149.794</ele>
        <time>2017-08-30T11:21:17Z</time>
      </trkpt>
      <trkpt lat="48.46518" lon="2.8069">
        <ele>149.613</ele>
        <time>2017-08-30T11:21:29Z</time>
      </trkpt>
      <trkpt lat="48.46524" lon="2.80713">
        <ele>149.379</ele>
        <time>2017-08-30T11:21:46Z</time>
      </trkpt>
      <trkpt lat="48.46526" lon="2.80749">
        <ele>149.141</ele>
        <time>2017-08-30T11:22:05Z</time>
      </trkpt>
      <trkpt lat="48.46527" lon="2.80782">
        <ele>148.962</ele>
        <time>2017-08-30T11:22:22Z</time>
      </trkpt>
      <trkpt lat="48.46523" lon="2.80805">
        <ele>148.844</ele>
        <time>2017-08-30T11:22:35Z</time>
      </trkpt>
      <trkpt lat="48.46523" lon="2.80805">
        <ele>148.844</ele>
        <time>2017-08-30T11:22:42Z</time>
      </trkpt>
      <trkpt lat="48.46523" lon="2.80805">
        <ele>85.7</ele>
        <time>2017-08-30T11:22:42Z</time>
      </trkpt>
      <trkpt lat="48.46523" lon="2.80805">
        <ele>85.7</ele>
        <time>2017-08-30T11:23:17Z</time>
      </trkpt>
      <trkpt lat="48.46516" lon="2.80848">
        <ele>148.397</ele>
        <time>2017-08-30T11:23:17Z</time>
      </trkpt>
      <trkpt lat="48.46517" lon="2.80871">
        <ele>148.258</ele>
        <time>2017-08-30T11:23:29Z</time>
      </trkpt>
      <trkpt lat="48.46517" lon="2.80894">
        <ele>148.091</ele>
        <time>2017-08-30T11:23:44Z</time>
      </trkpt>
      <trkpt lat="48.46519" lon="2.80916">
        <ele>147.916</ele>
        <time>2017-08-30T11:23:59Z</time>
      </trkpt>
      <trkpt lat="48.46514" lon="2.80954">
        <ele>147.73</ele>
        <time>2017-08-30T11:24:14Z</time>
      </trkpt>
      <trkpt lat="48.46514" lon="2.80954">
        <ele>147.73</ele>
        <time>2017-08-30T11:24:20Z</time>
      </trkpt>
      <trkpt lat="48.46514" lon="2.80954">
        <ele>83.5</ele>
        <time>2017-08-30T11:24:20Z</time>
      </trkpt>
      <trkpt lat="48.46514" lon="2.80954">
        <ele>83.5</ele>
        <time>2017-08-30T11:24:30Z</time>
      </trkpt>
      <trkpt lat="48.46517" lon="2.80978">
        <ele>147.548</ele>
        <time>2017-08-30T11:24:30Z</time>
      </trkpt>
      <trkpt lat="48.46521" lon="2.81">
        <ele>147.417</ele>
        <time>2017-08-30T11:24:43Z</time>
      </trkpt>
      <trkpt lat="48.46522" lon="2.81018">
        <ele>147.317</ele>
        <time>2017-08-30T11:24:56Z</time>
      </trkpt>
      <trkpt lat="48.4653" lon="2.81038">
        <ele>147.219</ele>
        <time>2017-08-30T11:25:09Z</time>
      </trkpt>
      <trkpt lat="48.46538" lon="2.81064">
        <ele>147.077</ele>
        <time>2017-08-30T11:25:26Z</time>
      </trkpt>
      <trkpt lat="48.46547" lon="2.81092">
        <ele>146.944</ele>
        <time>2017-08-30T11:25:42Z</time>
      </trkpt>
      <trkpt lat="48.46556" lon="2.81119">
        <ele>146.78</ele>
        <time>2017-08-30T11:26:00Z</time>
      </trkpt>
      <trkpt lat="48.46567" lon="2.81142">
        <ele>146.611</ele>
        <time>2017-08-30T11:26:15Z</time>
      </trkpt>
      <trkpt lat="48.46564" lon="2.8115">
        <ele>146.569</ele>
        <time>2017-08-30T11:26:18Z</time>
      </trkpt>
      <trkpt lat="48.46564" lon="2.8115">
        <ele>82.6</ele>
        <time>2017-08-30T11:26:25Z</time>
      </trkpt>
      <trkpt lat="48.46564" lon="2.8115">
        <ele>82.6</ele>
        <time>2017-08-30T11:27:13Z</time>
      </trkpt>
      <trkpt lat="48.46564" lon="2.81173">
        <ele>145.756</ele>
        <time>2017-08-30T11:27:13Z</time>
      </trkpt>
      <trkpt lat="48.46574" lon="2.81192">
        <ele>145.194</ele>
        <time>2017-08-30T11:27:28Z</time>
      </trkpt>
      <trkpt lat="48.46588" lon="2.81205">
        <ele>144.717</ele>
        <time>2017-08-30T11:27:44Z</time>
      </trkpt>
      <trkpt lat="48.466" lon="2.81228">
        <ele>144.287</ele>
        <time>2017-08-30T11:28:03Z</time>
      </trkpt>
      <trkpt lat="48.4661" lon="2.81247">
        <ele>143.992</ele>
        <time>2017-08-30T11:28:20Z</time>
      </trkpt>
      <trkpt lat="48.46625" lon="2.8127">
        <ele>143.758</ele>
        <time>2017-08-30T11:28:35Z</time>
      </trkpt>
      <trkpt lat="48.46639" lon="2.8128">
        <ele>143.556</ele>
        <time>2017-08-30T11:28:50Z</time>
      </trkpt>
      <trkpt lat="48.46656" lon="2.81295">
        <ele>143.342</ele>
        <time>2017-08-30T11:29:07Z</time>
      </trkpt>
      <trkpt lat="48.46669" lon="2.81302">
        <ele>143.197</ele>
        <time>2017-08-30T11:29:17Z</time>
      </trkpt>
      <trkpt lat="48.4669" lon="2.81306">
        <ele>142.954</ele>
        <time>2017-08-30T11:29:33Z</time>
      </trkpt>
      <trkpt lat="48.46698" lon="2.81307">
        <ele>142.832</ele>
        <time>2017-08-30T11:29:41Z</time>
      </trkpt>
      <trkpt lat="48.4671" lon="2.81312">
        <ele>142.629</ele>
        <time>2017-08-30T11:29:53Z</time>
      </trkpt>
      <trkpt lat="48.46725" lon="2.81312">
        <ele>142.425</ele>
        <time>2017-08-30T11:30:04Z</time>
      </trkpt>
      <trkpt lat="48.4673" lon="2.81313">
        <ele>142.329</ele>
        <time>2017-08-30T11:30:09Z</time>
      </trkpt>
      <trkpt lat="48.4673" lon="2.81313">
        <ele>69</ele>
        <time>2017-08-30T11:30:17Z</time>
      </trkpt>
      <trkpt lat="48.4673" lon="2.81313">
        <ele>69</ele>
        <time>2017-08-30T11:32:11Z</time>
      </trkpt>
      <trkpt lat="48.46749" lon="2.8132">
        <ele>140.323</ele>
        <time>2017-08-30T11:32:11Z</time>
      </trkpt>
      <trkpt lat="48.46761" lon="2.8133">
        <ele>139.895</ele>
        <time>2017-08-30T11:32:21Z</time>
      </trkpt>
      <trkpt lat="48.46767" lon="2.81341">
        <ele>139.385</ele>
        <time>2017-08-30T11:32:35Z</time>
      </trkpt>
      <trkpt lat="48.46776" lon="2.8137">
        <ele>138.622</ele>
        <time>2017-08-30T11:32:59Z</time>
      </trkpt>
      <trkpt lat="48.46784" lon="2.81383">
        <ele>138.343</ele>
        <time>2017-08-30T11:33:09Z</time>
      </trkpt>
      <trkpt lat="48.46791" lon="2.81396">
        <ele>138.047</ele>
        <time>2017-08-30T11:33:21Z</time>
      </trkpt>
      <trkpt lat="48.46795" lon="2.81405">
        <ele>137.89</ele>
        <time>2017-08-30T11:33:28Z</time>
      </trkpt>
      <trkpt lat="48.46795" lon="2.81405">
        <ele>70.1</ele>
        <time>2017-08-30T11:33:35Z</time>
      </trkpt>
      <trkpt lat="48.46795" lon="2.81405">
        <ele>70.1</ele>
        <time>2017-08-30T11:33:40Z</time>
      </trkpt>
      <trkpt lat="48.46797" lon="2.81414">
        <ele>137.659</ele>
        <time>2017-08-30T11:33:40Z</time>
      </trkpt>
      <trkpt lat="48.46812" lon="2.81425">
        <ele>137.383</ele>
        <time>2017-08-30T11:33:55Z</time>
      </trkpt>
      <trkpt lat="48.46823" lon="2.81438">
        <ele>137.179</ele>
        <time>2017-08-30T11:34:09Z</time>
      </trkpt>
      <trkpt lat="48.46835" lon="2.81436">
        <ele>137.062</ele>
        <time>2017-08-30T11:34:18Z</time>
      </trkpt>
      <trkpt lat="48.46853" lon="2.81433">
        <ele>136.829</ele>
        <time>2017-08-30T11:34:35Z</time>
      </trkpt>
      <trkpt lat="48.46867" lon="2.81431">
        <ele>136.687</ele>
        <time>2017-08-30T11:34:46Z</time>
      </trkpt>
      <trkpt lat="48.46879" lon="2.81431">
        <ele>136.529</ele>
        <time>2017-08-30T11:35:00Z</time>
      </trkpt>
      <trkpt lat="48.46896" lon="2.81427">
        <ele>136.354</ele>
        <time>2017-08-30T11:35:18Z</time>
      </trkpt>
      <trkpt lat="48.46909" lon="2.81423">
        <ele>136.213</ele>
        <time>2017-08-30T11:35:33Z</time>
      </trkpt>
      <trkpt lat="48.46922" lon="2.81413">
        <ele>136.075</ele>
        <time>2017-08-30T11:35:47Z</time>
      </trkpt>
      <trkpt lat="48.46936" lon="2.81409">
        <ele>135.978</ele>
        <time>2017-08-30T11:35:57Z</time>
      </trkpt>
      <trkpt lat="48.46944" lon="2.81404">
        <ele>135.895</ele>
        <time>2017-08-30T11:36:06Z</time>
      </trkpt>
      <trkpt lat="48.46944" lon="2.81404">
        <ele>88.4</ele>
        <time>2017-08-30T11:36:14Z</time>
      </trkpt>
      <trkpt lat="48.46944" lon="2.81404">
        <ele>88.4</ele>
        <time>2017-08-30T11:36:21Z</time>
      </trkpt>
      <trkpt lat="48.46955" lon="2.81403">
        <ele>135.773</ele>
        <time>2017-08-30T11:36:21Z</time>
      </trkpt>
      <trkpt lat="48.46968" lon="2.81397">
        <ele>135.683</ele>
        <time>2017-08-30T11:36:33Z</time>
      </trkpt>
      <trkpt lat="48.46968" lon="2.81397">
        <ele>135.683</ele>
        <time>2017-08-30T11:36:41Z</time>
      </trkpt>
      <trkpt lat="48.46968" lon="2.81397">
        <ele>90.4</ele>
        <time>2017-08-30T11:36:41Z</time>
      </trkpt>
      <trkpt lat="48.46968" lon="2.81397">
        <ele>90.4</ele>
        <time>2017-08-30T11:36:49Z</time>
      </trkpt>
      <trkpt lat="48.4698" lon="2.81398">
        <ele>135.644</ele>
        <time>2017-08-30T11:36:49Z</time>
      </trkpt>
      <trkpt lat="48.47005" lon="2.81389">
        <ele>135.629</ele>
        <time>2017-08-30T11:37:07Z</time>
      </trkpt>
      <trkpt lat="48.47021" lon="2.81383">
        <ele>135.683</ele>
        <time>2017-08-30T11:37:21Z</time>
      </trkpt>
      <trkpt lat="48.47039" lon="2.81377">
        <ele>135.75</ele>
        <time>2017-08-30T11:37:38Z</time>
      </trkpt>
      <trkpt lat="48.47057" lon="2.81366">
        <ele>135.798</ele>
        <time>2017-08-30T11:37:55Z</time>
      </trkpt>
      <trkpt lat="48.47075" lon="2.81362">
        <ele>135.862</ele>
        <time>2017-08-30T11:38:11Z</time>
      </trkpt>
      <trkpt lat="48.47094" lon="2.81353">
        <ele>135.949</ele>
        <time>2017-08-30T11:38:27Z</time>
      </trkpt>
      <trkpt lat="48.4711" lon="2.81351">
        <ele>136.059</ele>
        <time>2017-08-30T11:38:42Z</time>
      </trkpt>
      <trkpt lat="48.4711" lon="2.81351">
        <ele>136.059</ele>
        <time>2017-08-30T11:38:48Z</time>
      </trkpt>
      <trkpt lat="48.4711" lon="2.81351">
        <ele>98</ele>
        <time>2017-08-30T11:38:48Z</time>
      </trkpt>
      <trkpt lat="48.4711" lon="2.81351">
        <ele>98</ele>
        <time>2017-08-30T11:38:54Z</time>
      </trkpt>
      <trkpt lat="48.47119" lon="2.81352">
        <ele>136.168</ele>
        <time>2017-08-30T11:38:54Z</time>
      </trkpt>
      <trkpt lat="48.47128" lon="2.81368">
        <ele>136.295</ele>
        <time>2017-08-30T11:39:10Z</time>
      </trkpt>
      <trkpt lat="48.4714" lon="2.8139">
        <ele>136.371</ele>
        <time>2017-08-30T11:39:27Z</time>
      </trkpt>
      <trkpt lat="48.47148" lon="2.814">
        <ele>136.4</ele>
        <time>2017-08-30T11:39:38Z</time>
      </trkpt>
      <trkpt lat="48.47162" lon="2.81418">
        <ele>136.392</ele>
        <time>2017-08-30T11:39:54Z</time>
      </trkpt>
      <trkpt lat="48.47178" lon="2.8144">
        <ele>136.341</ele>
        <time>2017-08-30T11:40:12Z</time>
      </trkpt>
      <trkpt lat="48.47192" lon="2.81459">
        <ele>136.266</ele>
        <time>2017-08-30T11:40:26Z</time>
      </trkpt>
      <trkpt lat="48.47199" lon="2.81474">
        <ele>136.194</ele>
        <time>2017-08-30T11:40:38Z</time>
      </trkpt>
      <trkpt lat="48.4721" lon="2.81499">
        <ele>136.111</ele>
        <time>2017-08-30T11:40:56Z</time>
      </trkpt>
      <trkpt lat="48.4722" lon="2.81516">
        <ele>136.064</ele>
        <time>2017-08-30T11:41:10Z</time>
      </trkpt>
      <trkpt lat="48.47235" lon="2.81545">
        <ele>136.032</ele>
        <time>2017-08-30T11:41:32Z</time>
      </trkpt>
      <trkpt lat="48.47249" lon="2.81576">
        <ele>136.083</ele>
        <time>2017-08-30T11:41:51Z</time>
      </trkpt>
      <trkpt lat="48.47257" lon="2.81593">
        <ele>136.189</ele>
        <time>2017-08-30T11:42:02Z</time>
      </trkpt>
      <trkpt lat="48.47269" lon="2.81619">
        <ele>136.338</ele>
        <time>2017-08-30T11:42:18Z</time>
      </trkpt>
      <trkpt lat="48.47278" lon="2.81633">
        <ele>136.49</ele>
        <time>2017-08-30T11:42:33Z</time>
      </trkpt>
      <trkpt lat="48.47284" lon="2.81654">
        <ele>136.681</ele>
        <time>2017-08-30T11:42:48Z</time>
      </trkpt>
      <trkpt lat="48.47293" lon="2.81673">
        <ele>136.808</ele>
        <time>2017-08-30T11:43:00Z</time>
      </trkpt>
      <trkpt lat="48.47306" lon="2.81695">
        <ele>136.977</ele>
        <time>2017-08-30T11:43:15Z</time>
      </trkpt>
      <trkpt lat="48.47312" lon="2.81707">
        <ele>137.098</ele>
        <time>2017-08-30T11:43:26Z</time>
      </trkpt>
      <trkpt lat="48.47324" lon="2.81725">
        <ele>137.23</ele>
        <time>2017-08-30T11:43:37Z</time>
      </trkpt>
      <trkpt lat="48.47331" lon="2.81734">
        <ele>137.361</ele>
        <time>2017-08-30T11:43:45Z</time>
      </trkpt>
      <trkpt lat="48.47341" lon="2.81757">
        <ele>137.708</ele>
        <time>2017-08-30T11:44:04Z</time>
      </trkpt>
      <trkpt lat="48.47349" lon="2.81777">
        <ele>137.954</ele>
        <time>2017-08-30T11:44:18Z</time>
      </trkpt>
      <trkpt lat="48.47358" lon="2.81802">
        <ele>138.111</ele>
        <time>2017-08-30T11:44:34Z</time>
      </trkpt>
      <trkpt lat="48.47365" lon="2.81814">
        <ele>138.153</ele>
        <time>2017-08-30T11:44:40Z</time>
      </trkpt>
      <trkpt lat="48.47374" lon="2.81827">
        <ele>138.249</ele>
        <time>2017-08-30T11:44:53Z</time>
      </trkpt>
      <trkpt lat="48.47382" lon="2.81843">
        <ele>138.311</ele>
        <time>2017-08-30T11:45:06Z</time>
      </trkpt>
      <trkpt lat="48.47397" lon="2.81861">
        <ele>138.468</ele>
        <time>2017-08-30T11:45:21Z</time>
      </trkpt>
      <trkpt lat="48.47408" lon="2.81882">
        <ele>138.547</ele>
        <time>2017-08-30T11:45:35Z</time>
      </trkpt>
      <trkpt lat="48.47419" lon="2.81902">
        <ele>138.583</ele>
        <time>2017-08-30T11:45:50Z</time>
      </trkpt>
      <trkpt lat="48.47432" lon="2.81923">
        <ele>138.671</ele>
        <time>2017-08-30T11:46:04Z</time>
      </trkpt>
      <trkpt lat="48.47438" lon="2.81935">
        <ele>138.667</ele>
        <time>2017-08-30T11:46:10Z</time>
      </trkpt>
      <trkpt lat="48.47438" lon="2.81935">
        <ele>103</ele>
        <time>2017-08-30T11:46:17Z</time>
      </trkpt>
      <trkpt lat="48.47438" lon="2.81935">
        <ele>103</ele>
        <time>2017-08-30T11:47:41Z</time>
      </trkpt>
      <trkpt lat="48.47456" lon="2.81968">
        <ele>138.927</ele>
        <time>2017-08-30T11:47:41Z</time>
      </trkpt>
      <trkpt lat="48.47465" lon="2.8199">
        <ele>138.997</ele>
        <time>2017-08-30T11:47:53Z</time>
      </trkpt>
      <trkpt lat="48.4747" lon="2.81997">
        <ele>139.016</ele>
        <time>2017-08-30T11:47:57Z</time>
      </trkpt>
      <trkpt lat="48.4747" lon="2.81997">
        <ele>103.1</ele>
        <time>2017-08-30T11:48:03Z</time>
      </trkpt>
      <trkpt lat="48.4747" lon="2.81997">
        <ele>103.1</ele>
        <time>2017-08-30T11:58:01Z</time>
      </trkpt>
      <trkpt lat="48.47465" lon="2.82028">
        <ele>140.344</ele>
        <time>2017-08-30T11:58:01Z</time>
      </trkpt>
      <trkpt lat="48.4746" lon="2.82045">
        <ele>140.44</ele>
        <time>2017-08-30T11:58:14Z</time>
      </trkpt>
      <trkpt lat="48.47457" lon="2.82049">
        <ele>140.461</ele>
        <time>2017-08-30T11:58:18Z</time>
      </trkpt>
      <trkpt lat="48.47457" lon="2.82049">
        <ele>103.5</ele>
        <time>2017-08-30T11:58:26Z</time>
      </trkpt>
      <trkpt lat="48.47457" lon="2.82049">
        <ele>103.5</ele>
        <time>2017-08-30T11:58:33Z</time>
      </trkpt>
      <trkpt lat="48.47452" lon="2.82056">
        <ele>140.533</ele>
        <time>2017-08-30T11:58:33Z</time>
      </trkpt>
      <trkpt lat="48.47441" lon="2.82068">
        <ele>140.6</ele>
        <time>2017-08-30T11:58:47Z</time>
      </trkpt>
      <trkpt lat="48.4743" lon="2.8208">
        <ele>140.643</ele>
        <time>2017-08-30T11:59:00Z</time>
      </trkpt>
      <trkpt lat="48.47413" lon="2.82094">
        <ele>140.664</ele>
        <time>2017-08-30T11:59:18Z</time>
      </trkpt>
      <trkpt lat="48.47401" lon="2.82108">
        <ele>140.672</ele>
        <time>2017-08-30T11:59:27Z</time>
      </trkpt>
      <trkpt lat="48.4739" lon="2.82116">
        <ele>140.677</ele>
        <time>2017-08-30T11:59:38Z</time>
      </trkpt>
      <trkpt lat="48.47375" lon="2.82128">
        <ele>140.663</ele>
        <time>2017-08-30T11:59:51Z</time>
      </trkpt>
      <trkpt lat="48.47363" lon="2.82142">
        <ele>140.664</ele>
        <time>2017-08-30T12:00:03Z</time>
      </trkpt>
      <trkpt lat="48.47345" lon="2.82151">
        <ele>140.636</ele>
        <time>2017-08-30T12:00:19Z</time>
      </trkpt>
      <trkpt lat="48.47329" lon="2.82171">
        <ele>140.585</ele>
        <time>2017-08-30T12:00:39Z</time>
      </trkpt>
      <trkpt lat="48.47316" lon="2.82184">
        <ele>140.535</ele>
        <time>2017-08-30T12:00:51Z</time>
      </trkpt>
      <trkpt lat="48.473" lon="2.82206">
        <ele>140.472</ele>
        <time>2017-08-30T12:01:08Z</time>
      </trkpt>
      <trkpt lat="48.4728" lon="2.82221">
        <ele>140.415</ele>
        <time>2017-08-30T12:01:23Z</time>
      </trkpt>
      <trkpt lat="48.47268" lon="2.82229">
        <ele>140.413</ele>
        <time>2017-08-30T12:01:36Z</time>
      </trkpt>
      <trkpt lat="48.47259" lon="2.82245">
        <ele>140.417</ele>
        <time>2017-08-30T12:01:47Z</time>
      </trkpt>
      <trkpt lat="48.47259" lon="2.82245">
        <ele>140.417</ele>
        <time>2017-08-30T12:01:52Z</time>
      </trkpt>
      <trkpt lat="48.47259" lon="2.82245">
        <ele>105</ele>
        <time>2017-08-30T12:01:52Z</time>
      </trkpt>
      <trkpt lat="48.47259" lon="2.82245">
        <ele>105</ele>
        <time>2017-08-30T12:02:03Z</time>
      </trkpt>
      <trkpt lat="48.47246" lon="2.8225">
        <ele>140.407</ele>
        <time>2017-08-30T12:02:03Z</time>
      </trkpt>
      <trkpt lat="48.47238" lon="2.82264">
        <ele>140.357</ele>
        <time>2017-08-30T12:02:15Z</time>
      </trkpt>
      <trkpt lat="48.47219" lon="2.82278">
        <ele>140.294</ele>
        <time>2017-08-30T12:02:31Z</time>
      </trkpt>
      <trkpt lat="48.4721" lon="2.82291">
        <ele>140.326</ele>
        <time>2017-08-30T12:02:45Z</time>
      </trkpt>
      <trkpt lat="48.47198" lon="2.82305">
        <ele>140.468</ele>
        <time>2017-08-30T12:03:00Z</time>
      </trkpt>
      <trkpt lat="48.47185" lon="2.82315">
        <ele>140.557</ele>
        <time>2017-08-30T12:03:10Z</time>
      </trkpt>
      <trkpt lat="48.47176" lon="2.82322">
        <ele>140.631</ele>
        <time>2017-08-30T12:03:17Z</time>
      </trkpt>
      <trkpt lat="48.47152" lon="2.82336">
        <ele>140.913</ele>
        <time>2017-08-30T12:03:35Z</time>
      </trkpt>
      <trkpt lat="48.4714" lon="2.82348">
        <ele>141.009</ele>
        <time>2017-08-30T12:03:48Z</time>
      </trkpt>
      <trkpt lat="48.47123" lon="2.82361">
        <ele>141.168</ele>
        <time>2017-08-30T12:04:05Z</time>
      </trkpt>
      <trkpt lat="48.47113" lon="2.82393">
        <ele>141.481</ele>
        <time>2017-08-30T12:04:22Z</time>
      </trkpt>
      <trkpt lat="48.47114" lon="2.82423">
        <ele>141.776</ele>
        <time>2017-08-30T12:04:37Z</time>
      </trkpt>
      <trkpt lat="48.47116" lon="2.82445">
        <ele>141.959</ele>
        <time>2017-08-30T12:04:49Z</time>
      </trkpt>
      <trkpt lat="48.47119" lon="2.82463">
        <ele>142.119</ele>
        <time>2017-08-30T12:05:00Z</time>
      </trkpt>
      <trkpt lat="48.4712" lon="2.82484">
        <ele>142.349</ele>
        <time>2017-08-30T12:05:11Z</time>
      </trkpt>
      <trkpt lat="48.4712" lon="2.82502">
        <ele>142.613</ele>
        <time>2017-08-30T12:05:22Z</time>
      </trkpt>
      <trkpt lat="48.47121" lon="2.82526">
        <ele>142.835</ele>
        <time>2017-08-30T12:05:36Z</time>
      </trkpt>
      <trkpt lat="48.47118" lon="2.82556">
        <ele>143.043</ele>
        <time>2017-08-30T12:05:51Z</time>
      </trkpt>
      <trkpt lat="48.4712" lon="2.82579">
        <ele>143.317</ele>
        <time>2017-08-30T12:06:07Z</time>
      </trkpt>
      <trkpt lat="48.47121" lon="2.82614">
        <ele>143.505</ele>
        <time>2017-08-30T12:06:24Z</time>
      </trkpt>
      <trkpt lat="48.47121" lon="2.82641">
        <ele>143.706</ele>
        <time>2017-08-30T12:06:39Z</time>
      </trkpt>
      <trkpt lat="48.47122" lon="2.82672">
        <ele>144.012</ele>
        <time>2017-08-30T12:06:56Z</time>
      </trkpt>
      <trkpt lat="48.47124" lon="2.82698">
        <ele>144.414</ele>
        <time>2017-08-30T12:07:11Z</time>
      </trkpt>
      <trkpt lat="48.47099" lon="2.82718">
        <ele>144.884</ele>
        <time>2017-08-30T12:07:29Z</time>
      </trkpt>
      <trkpt lat="48.47087" lon="2.82721">
        <ele>145.091</ele>
        <time>2017-08-30T12:07:39Z</time>
      </trkpt>
      <trkpt lat="48.47067" lon="2.82725">
        <ele>145.306</ele>
        <time>2017-08-30T12:07:56Z</time>
      </trkpt>
      <trkpt lat="48.47045" lon="2.82723">
        <ele>145.456</ele>
        <time>2017-08-30T12:08:14Z</time>
      </trkpt>
      <trkpt lat="48.4703" lon="2.82728">
        <ele>145.515</ele>
        <time>2017-08-30T12:08:29Z</time>
      </trkpt>
      <trkpt lat="48.47012" lon="2.8273">
        <ele>145.559</ele>
        <time>2017-08-30T12:08:45Z</time>
      </trkpt>
      <trkpt lat="48.46993" lon="2.8273">
        <ele>145.584</ele>
        <time>2017-08-30T12:09:02Z</time>
      </trkpt>
      <trkpt lat="48.46983" lon="2.82733">
        <ele>145.585</ele>
        <time>2017-08-30T12:09:11Z</time>
      </trkpt>
      <trkpt lat="48.46966" lon="2.8273">
        <ele>145.576</ele>
        <time>2017-08-30T12:09:26Z</time>
      </trkpt>
      <trkpt lat="48.46948" lon="2.82732">
        <ele>145.569</ele>
        <time>2017-08-30T12:09:43Z</time>
      </trkpt>
      <trkpt lat="48.46928" lon="2.8273">
        <ele>145.545</ele>
        <time>2017-08-30T12:09:59Z</time>
      </trkpt>
      <trkpt lat="48.46904" lon="2.82731">
        <ele>145.514</ele>
        <time>2017-08-30T12:10:17Z</time>
      </trkpt>
      <trkpt lat="48.46894" lon="2.82731">
        <ele>145.487</ele>
        <time>2017-08-30T12:10:26Z</time>
      </trkpt>
      <trkpt lat="48.4688" lon="2.8273">
        <ele>145.434</ele>
        <time>2017-08-30T12:10:41Z</time>
      </trkpt>
      <trkpt lat="48.4686" lon="2.82733">
        <ele>145.37</ele>
        <time>2017-08-30T12:10:58Z</time>
      </trkpt>
      <trkpt lat="48.4684" lon="2.8273">
        <ele>145.328</ele>
        <time>2017-08-30T12:11:12Z</time>
      </trkpt>
      <trkpt lat="48.4682" lon="2.82731">
        <ele>145.29</ele>
        <time>2017-08-30T12:11:29Z</time>
      </trkpt>
      <trkpt lat="48.46809" lon="2.82729">
        <ele>145.263</ele>
        <time>2017-08-30T12:11:40Z</time>
      </trkpt>
      <trkpt lat="48.46788" lon="2.82731">
        <ele>145.199</ele>
        <time>2017-08-30T12:12:00Z</time>
      </trkpt>
      <trkpt lat="48.46765" lon="2.82729">
        <ele>145.149</ele>
        <time>2017-08-30T12:12:17Z</time>
      </trkpt>
      <trkpt lat="48.46743" lon="2.82727">
        <ele>145.098</ele>
        <time>2017-08-30T12:12:35Z</time>
      </trkpt>
      <trkpt lat="48.46722" lon="2.82729">
        <ele>145.077</ele>
        <time>2017-08-30T12:12:54Z</time>
      </trkpt>
      <trkpt lat="48.46697" lon="2.82727">
        <ele>145.079</ele>
        <time>2017-08-30T12:13:13Z</time>
      </trkpt>
      <trkpt lat="48.46695" lon="2.82748">
        <ele>145.109</ele>
        <time>2017-08-30T12:13:28Z</time>
      </trkpt>
      <trkpt lat="48.46696" lon="2.82769">
        <ele>145.164</ele>
        <time>2017-08-30T12:13:43Z</time>
      </trkpt>
      <trkpt lat="48.46693" lon="2.82797">
        <ele>145.258</ele>
        <time>2017-08-30T12:14:05Z</time>
      </trkpt>
      <trkpt lat="48.46695" lon="2.8282">
        <ele>145.327</ele>
        <time>2017-08-30T12:14:20Z</time>
      </trkpt>
      <trkpt lat="48.46696" lon="2.82841">
        <ele>145.368</ele>
        <time>2017-08-30T12:14:31Z</time>
      </trkpt>
      <trkpt lat="48.46697" lon="2.82857">
        <ele>145.423</ele>
        <time>2017-08-30T12:14:42Z</time>
      </trkpt>
      <trkpt lat="48.4669" lon="2.82887">
        <ele>145.501</ele>
        <time>2017-08-30T12:15:00Z</time>
      </trkpt>
      <trkpt lat="48.46689" lon="2.82913">
        <ele>145.541</ele>
        <time>2017-08-30T12:15:15Z</time>
      </trkpt>
      <trkpt lat="48.46672" lon="2.82941">
        <ele>145.51</ele>
        <time>2017-08-30T12:15:31Z</time>
      </trkpt>
      <trkpt lat="48.46662" lon="2.82949">
        <ele>145.475</ele>
        <time>2017-08-30T12:15:38Z</time>
      </trkpt>
      <trkpt lat="48.46647" lon="2.82955">
        <ele>145.433</ele>
        <time>2017-08-30T12:15:50Z</time>
      </trkpt>
      <trkpt lat="48.46633" lon="2.82965">
        <ele>145.397</ele>
        <time>2017-08-30T12:16:01Z</time>
      </trkpt>
      <trkpt lat="48.46624" lon="2.82984">
        <ele>145.341</ele>
        <time>2017-08-30T12:16:16Z</time>
      </trkpt>
      <trkpt lat="48.46624" lon="2.82984">
        <ele>145.341</ele>
        <time>2017-08-30T12:16:24Z</time>
      </trkpt>
      <trkpt lat="48.46624" lon="2.82984">
        <ele>94.7</ele>
        <time>2017-08-30T12:16:24Z</time>
      </trkpt>
      <trkpt lat="48.46624" lon="2.82984">
        <ele>94.7</ele>
        <time>2017-08-30T12:16:36Z</time>
      </trkpt>
      <trkpt lat="48.46611" lon="2.82998">
        <ele>145.338</ele>
        <time>2017-08-30T12:16:36Z</time>
      </trkpt>
      <trkpt lat="48.46598" lon="2.83012">
        <ele>145.378</ele>
        <time>2017-08-30T12:16:54Z</time>
      </trkpt>
      <trkpt lat="48.4657" lon="2.83037">
        <ele>145.346</ele>
        <time>2017-08-30T12:17:12Z</time>
      </trkpt>
      <trkpt lat="48.4656" lon="2.8306">
        <ele>145.153</ele>
        <time>2017-08-30T12:17:32Z</time>
      </trkpt>
      <trkpt lat="48.46551" lon="2.83075">
        <ele>145.002</ele>
        <time>2017-08-30T12:17:44Z</time>
      </trkpt>
      <trkpt lat="48.46546" lon="2.8309">
        <ele>144.888</ele>
        <time>2017-08-30T12:17:54Z</time>
      </trkpt>
      <trkpt lat="48.46531" lon="2.83111">
        <ele>144.679</ele>
        <time>2017-08-30T12:18:09Z</time>
      </trkpt>
      <trkpt lat="48.4652" lon="2.83135">
        <ele>144.429</ele>
        <time>2017-08-30T12:18:23Z</time>
      </trkpt>
      <trkpt lat="48.46511" lon="2.83155">
        <ele>144.195</ele>
        <time>2017-08-30T12:18:35Z</time>
      </trkpt>
      <trkpt lat="48.46497" lon="2.83161">
        <ele>144.014</ele>
        <time>2017-08-30T12:18:44Z</time>
      </trkpt>
      <trkpt lat="48.46488" lon="2.83154">
        <ele>143.827</ele>
        <time>2017-08-30T12:18:53Z</time>
      </trkpt>
      <trkpt lat="48.46472" lon="2.83129">
        <ele>143.414</ele>
        <time>2017-08-30T12:19:09Z</time>
      </trkpt>
      <trkpt lat="48.46467" lon="2.83105">
        <ele>142.982</ele>
        <time>2017-08-30T12:19:23Z</time>
      </trkpt>
      <trkpt lat="48.46463" lon="2.83079">
        <ele>142.509</ele>
        <time>2017-08-30T12:19:36Z</time>
      </trkpt>
      <trkpt lat="48.46462" lon="2.8306">
        <ele>142.115</ele>
        <time>2017-08-30T12:19:46Z</time>
      </trkpt>
      <trkpt lat="48.46453" lon="2.83033">
        <ele>141.426</ele>
        <time>2017-08-30T12:20:02Z</time>
      </trkpt>
      <trkpt lat="48.46446" lon="2.83006">
        <ele>140.722</ele>
        <time>2017-08-30T12:20:18Z</time>
      </trkpt>
      <trkpt lat="48.46438" lon="2.82981">
        <ele>140.04</ele>
        <time>2017-08-30T12:20:34Z</time>
      </trkpt>
      <trkpt lat="48.46416" lon="2.82951">
        <ele>138.871</ele>
        <time>2017-08-30T12:21:08Z</time>
      </trkpt>
      <trkpt lat="48.46403" lon="2.82936">
        <ele>138.469</ele>
        <time>2017-08-30T12:21:24Z</time>
      </trkpt>
      <trkpt lat="48.46384" lon="2.82919">
        <ele>138.112</ele>
        <time>2017-08-30T12:21:39Z</time>
      </trkpt>
      <trkpt lat="48.46375" lon="2.82915">
        <ele>137.814</ele>
        <time>2017-08-30T12:21:54Z</time>
      </trkpt>
      <trkpt lat="48.46364" lon="2.82907">
        <ele>137.651</ele>
        <time>2017-08-30T12:22:04Z</time>
      </trkpt>
      <trkpt lat="48.46343" lon="2.82888">
        <ele>137.42</ele>
        <time>2017-08-30T12:22:19Z</time>
      </trkpt>
      <trkpt lat="48.46336" lon="2.82887">
        <ele>137.308</ele>
        <time>2017-08-30T12:22:27Z</time>
      </trkpt>
      <trkpt lat="48.46318" lon="2.82879">
        <ele>137.096</ele>
        <time>2017-08-30T12:22:44Z</time>
      </trkpt>
      <trkpt lat="48.46304" lon="2.82869">
        <ele>136.938</ele>
        <time>2017-08-30T12:23:01Z</time>
      </trkpt>
      <trkpt lat="48.46287" lon="2.82851">
        <ele>136.856</ele>
        <time>2017-08-30T12:23:20Z</time>
      </trkpt>
      <trkpt lat="48.46277" lon="2.82846">
        <ele>136.825</ele>
        <time>2017-08-30T12:23:29Z</time>
      </trkpt>
      <trkpt lat="48.46263" lon="2.82841">
        <ele>136.765</ele>
        <time>2017-08-30T12:23:48Z</time>
      </trkpt>
      <trkpt lat="48.46243" lon="2.82844">
        <ele>136.75</ele>
        <time>2017-08-30T12:24:09Z</time>
      </trkpt>
      <trkpt lat="48.46233" lon="2.82843">
        <ele>136.756</ele>
        <time>2017-08-30T12:24:17Z</time>
      </trkpt>
      <trkpt lat="48.46228" lon="2.82843">
        <ele>136.749</ele>
        <time>2017-08-30T12:24:25Z</time>
      </trkpt>
      <trkpt lat="48.46228" lon="2.82843">
        <ele>96.6</ele>
        <time>2017-08-30T12:24:32Z</time>
      </trkpt>
      <trkpt lat="48.46228" lon="2.82843">
        <ele>96.6</ele>
        <time>2017-08-30T12:24:38Z</time>
      </trkpt>
      <trkpt lat="48.46221" lon="2.82845">
        <ele>136.717</ele>
        <time>2017-08-30T12:24:38Z</time>
      </trkpt>
      <trkpt lat="48.46205" lon="2.82848">
        <ele>136.665</ele>
        <time>2017-08-30T12:24:55Z</time>
      </trkpt>
      <trkpt lat="48.46194" lon="2.82845">
        <ele>136.66</ele>
        <time>2017-08-30T12:25:09Z</time>
      </trkpt>
      <trkpt lat="48.46167" lon="2.82867">
        <ele>136.607</ele>
        <time>2017-08-30T12:25:57Z</time>
      </trkpt>
      <trkpt lat="48.46157" lon="2.82884">
        <ele>136.649</ele>
        <time>2017-08-30T12:26:12Z</time>
      </trkpt>
      <trkpt lat="48.46146" lon="2.82895">
        <ele>136.723</ele>
        <time>2017-08-30T12:26:26Z</time>
      </trkpt>
      <trkpt lat="48.46132" lon="2.82908">
        <ele>136.817</ele>
        <time>2017-08-30T12:26:38Z</time>
      </trkpt>
      <trkpt lat="48.46111" lon="2.82918">
        <ele>136.977</ele>
        <time>2017-08-30T12:26:56Z</time>
      </trkpt>
      <trkpt lat="48.46102" lon="2.82924">
        <ele>137.057</ele>
        <time>2017-08-30T12:27:03Z</time>
      </trkpt>
      <trkpt lat="48.46102" lon="2.82924">
        <ele>102.6</ele>
        <time>2017-08-30T12:27:10Z</time>
      </trkpt>
      <trkpt lat="48.46102" lon="2.82924">
        <ele>102.6</ele>
        <time>2017-08-30T12:27:16Z</time>
      </trkpt>
      <trkpt lat="48.46095" lon="2.82933">
        <ele>137.221</ele>
        <time>2017-08-30T12:27:16Z</time>
      </trkpt>
      <trkpt lat="48.46087" lon="2.82959">
        <ele>137.412</ele>
        <time>2017-08-30T12:27:30Z</time>
      </trkpt>
      <trkpt lat="48.46079" lon="2.82988">
        <ele>137.627</ele>
        <time>2017-08-30T12:27:47Z</time>
      </trkpt>
      <trkpt lat="48.46075" lon="2.83011">
        <ele>137.78</ele>
        <time>2017-08-30T12:28:00Z</time>
      </trkpt>
      <trkpt lat="48.46066" lon="2.8303">
        <ele>137.89</ele>
        <time>2017-08-30T12:28:12Z</time>
      </trkpt>
      <trkpt lat="48.46053" lon="2.83061">
        <ele>138.094</ele>
        <time>2017-08-30T12:28:30Z</time>
      </trkpt>
      <trkpt lat="48.46046" lon="2.83086">
        <ele>138.278</ele>
        <time>2017-08-30T12:28:44Z</time>
      </trkpt>
      <trkpt lat="48.46045" lon="2.83092">
        <ele>138.325</ele>
        <time>2017-08-30T12:28:47Z</time>
      </trkpt>
      <trkpt lat="48.46045" lon="2.83092">
        <ele>103.7</ele>
        <time>2017-08-30T12:28:54Z</time>
      </trkpt>
      <trkpt lat="48.46045" lon="2.83092">
        <ele>103.7</ele>
        <time>2017-08-30T12:29:03Z</time>
      </trkpt>
      <trkpt lat="48.46044" lon="2.83106">
        <ele>138.586</ele>
        <time>2017-08-30T12:29:03Z</time>
      </trkpt>
      <trkpt lat="48.46036" lon="2.83147">
        <ele>138.986</ele>
        <time>2017-08-30T12:29:37Z</time>
      </trkpt>
      <trkpt lat="48.46035" lon="2.83156">
        <ele>139.025</ele>
        <time>2017-08-30T12:29:42Z</time>
      </trkpt>
      <trkpt lat="48.46035" lon="2.83156">
        <ele>102.7</ele>
        <time>2017-08-30T12:29:48Z</time>
      </trkpt>
      <trkpt lat="48.46035" lon="2.83156">
        <ele>102.7</ele>
        <time>2017-08-30T12:29:54Z</time>
      </trkpt>
      <trkpt lat="48.46037" lon="2.83168">
        <ele>139.114</ele>
        <time>2017-08-30T12:29:54Z</time>
      </trkpt>
      <trkpt lat="48.4605" lon="2.83182">
        <ele>139.216</ele>
        <time>2017-08-30T12:30:07Z</time>
      </trkpt>
      <trkpt lat="48.46061" lon="2.83204">
        <ele>139.349</ele>
        <time>2017-08-30T12:30:25Z</time>
      </trkpt>
      <trkpt lat="48.46065" lon="2.83222">
        <ele>139.405</ele>
        <time>2017-08-30T12:30:36Z</time>
      </trkpt>
      <trkpt lat="48.46072" lon="2.83245">
        <ele>139.458</ele>
        <time>2017-08-30T12:30:50Z</time>
      </trkpt>
      <trkpt lat="48.46076" lon="2.83269">
        <ele>139.474</ele>
        <time>2017-08-30T12:31:04Z</time>
      </trkpt>
      <trkpt lat="48.46081" lon="2.83285">
        <ele>139.455</ele>
        <time>2017-08-30T12:31:15Z</time>
      </trkpt>
      <trkpt lat="48.46081" lon="2.83285">
        <ele>99</ele>
        <time>2017-08-30T12:31:23Z</time>
      </trkpt>
      <trkpt lat="48.46081" lon="2.83285">
        <ele>99</ele>
        <time>2017-08-30T12:31:56Z</time>
      </trkpt>
      <trkpt lat="48.46081" lon="2.83311">
        <ele>139.386</ele>
        <time>2017-08-30T12:31:56Z</time>
      </trkpt>
      <trkpt lat="48.46088" lon="2.83336">
        <ele>139.339</ele>
        <time>2017-08-30T12:32:10Z</time>
      </trkpt>
      <trkpt lat="48.46096" lon="2.83359">
        <ele>139.278</ele>
        <time>2017-08-30T12:32:25Z</time>
      </trkpt>
      <trkpt lat="48.46104" lon="2.83376">
        <ele>139.228</ele>
        <time>2017-08-30T12:32:35Z</time>
      </trkpt>
      <trkpt lat="48.46114" lon="2.83395">
        <ele>139.148</ele>
        <time>2017-08-30T12:32:49Z</time>
      </trkpt>
      <trkpt lat="48.46123" lon="2.83413">
        <ele>139.078</ele>
        <time>2017-08-30T12:33:02Z</time>
      </trkpt>
      <trkpt lat="48.46134" lon="2.83435">
        <ele>139.013</ele>
        <time>2017-08-30T12:33:16Z</time>
      </trkpt>
      <trkpt lat="48.4614" lon="2.83454">
        <ele>138.959</ele>
        <time>2017-08-30T12:33:27Z</time>
      </trkpt>
      <trkpt lat="48.46152" lon="2.83478">
        <ele>138.835</ele>
        <time>2017-08-30T12:33:43Z</time>
      </trkpt>
      <trkpt lat="48.46164" lon="2.83501">
        <ele>138.653</ele>
        <time>2017-08-30T12:34:01Z</time>
      </trkpt>
      <trkpt lat="48.46172" lon="2.8352">
        <ele>138.549</ele>
        <time>2017-08-30T12:34:13Z</time>
      </trkpt>
      <trkpt lat="48.46187" lon="2.83548">
        <ele>138.434</ele>
        <time>2017-08-30T12:34:31Z</time>
      </trkpt>
      <trkpt lat="48.46201" lon="2.83564">
        <ele>138.345</ele>
        <time>2017-08-30T12:34:45Z</time>
      </trkpt>
      <trkpt lat="48.46214" lon="2.83576">
        <ele>138.289</ele>
        <time>2017-08-30T12:35:00Z</time>
      </trkpt>
      <trkpt lat="48.46231" lon="2.83585">
        <ele>138.229</ele>
        <time>2017-08-30T12:35:17Z</time>
      </trkpt>
      <trkpt lat="48.46247" lon="2.83584">
        <ele>138.168</ele>
        <time>2017-08-30T12:35:33Z</time>
      </trkpt>
      <trkpt lat="48.46269" lon="2.83583">
        <ele>138.127</ele>
        <time>2017-08-30T12:35:51Z</time>
      </trkpt>
      <trkpt lat="48.46291" lon="2.83579">
        <ele>138.078</ele>
        <time>2017-08-30T12:36:07Z</time>
      </trkpt>
      <trkpt lat="48.46308" lon="2.83576">
        <ele>138.023</ele>
        <time>2017-08-30T12:36:20Z</time>
      </trkpt>
      <trkpt lat="48.4633" lon="2.83566">
        <ele>137.952</ele>
        <time>2017-08-30T12:36:37Z</time>
      </trkpt>
      <trkpt lat="48.46338" lon="2.83562">
        <ele>137.914</ele>
        <time>2017-08-30T12:36:45Z</time>
      </trkpt>
      <trkpt lat="48.46346" lon="2.83557">
        <ele>137.872</ele>
        <time>2017-08-30T12:36:54Z</time>
      </trkpt>
      <trkpt lat="48.46364" lon="2.83549">
        <ele>137.806</ele>
        <time>2017-08-30T12:37:13Z</time>
      </trkpt>
      <trkpt lat="48.46375" lon="2.83548">
        <ele>137.763</ele>
        <time>2017-08-30T12:37:23Z</time>
      </trkpt>
      <trkpt lat="48.4639" lon="2.8354">
        <ele>137.7</ele>
        <time>2017-08-30T12:37:38Z</time>
      </trkpt>
      <trkpt lat="48.464" lon="2.83533">
        <ele>137.664</ele>
        <time>2017-08-30T12:37:47Z</time>
      </trkpt>
      <trkpt lat="48.46416" lon="2.83528">
        <ele>137.627</ele>
        <time>2017-08-30T12:37:58Z</time>
      </trkpt>
      <trkpt lat="48.46429" lon="2.83525">
        <ele>137.595</ele>
        <time>2017-08-30T12:38:10Z</time>
      </trkpt>
      <trkpt lat="48.46455" lon="2.83527">
        <ele>137.544</ele>
        <time>2017-08-30T12:38:29Z</time>
      </trkpt>
      <trkpt lat="48.4646" lon="2.8353">
        <ele>137.531</ele>
        <time>2017-08-30T12:38:34Z</time>
      </trkpt>
      <trkpt lat="48.4646" lon="2.8353">
        <ele>78.5</ele>
        <time>2017-08-30T12:38:42Z</time>
      </trkpt>
      <trkpt lat="48.4646" lon="2.8353">
        <ele>78.5</ele>
        <time>2017-08-30T12:38:47Z</time>
      </trkpt>
      <trkpt lat="48.46469" lon="2.83537">
        <ele>137.49</ele>
        <time>2017-08-30T12:38:47Z</time>
      </trkpt>
      <trkpt lat="48.46481" lon="2.83563">
        <ele>137.401</ele>
        <time>2017-08-30T12:39:05Z</time>
      </trkpt>
      <trkpt lat="48.46483" lon="2.83574">
        <ele>137.361</ele>
        <time>2017-08-30T12:39:13Z</time>
      </trkpt>
      <trkpt lat="48.46483" lon="2.83574">
        <ele>80.7</ele>
        <time>2017-08-30T12:39:20Z</time>
      </trkpt>
      <trkpt lat="48.46483" lon="2.83574">
        <ele>80.7</ele>
        <time>2017-08-30T12:39:56Z</time>
      </trkpt>
      <trkpt lat="48.46475" lon="2.83617">
        <ele>137.164</ele>
        <time>2017-08-30T12:39:56Z</time>
      </trkpt>
      <trkpt lat="48.46471" lon="2.83627">
        <ele>137.121</ele>
        <time>2017-08-30T12:40:07Z</time>
      </trkpt>
      <trkpt lat="48.46471" lon="2.83627">
        <ele>82</ele>
        <time>2017-08-30T12:40:14Z</time>
      </trkpt>
      <trkpt lat="48.46471" lon="2.83627">
        <ele>82</ele>
        <time>2017-08-30T12:40:53Z</time>
      </trkpt>
      <trkpt lat="48.4645" lon="2.8366">
        <ele>136.837</ele>
        <time>2017-08-30T12:40:53Z</time>
      </trkpt>
      <trkpt lat="48.46447" lon="2.83681">
        <ele>136.749</ele>
        <time>2017-08-30T12:41:08Z</time>
      </trkpt>
      <trkpt lat="48.46433" lon="2.83721">
        <ele>136.548</ele>
        <time>2017-08-30T12:41:52Z</time>
      </trkpt>
      <trkpt lat="48.46415" lon="2.83756">
        <ele>136.315</ele>
        <time>2017-08-30T12:42:26Z</time>
      </trkpt>
      <trkpt lat="48.464" lon="2.83782">
        <ele>136.215</ele>
        <time>2017-08-30T12:42:43Z</time>
      </trkpt>
      <trkpt lat="48.46385" lon="2.83805">
        <ele>136.128</ele>
        <time>2017-08-30T12:42:59Z</time>
      </trkpt>
      <trkpt lat="48.46371" lon="2.83828">
        <ele>136.048</ele>
        <time>2017-08-30T12:43:14Z</time>
      </trkpt>
      <trkpt lat="48.46367" lon="2.83848">
        <ele>135.974</ele>
        <time>2017-08-30T12:43:32Z</time>
      </trkpt>
      <trkpt lat="48.46367" lon="2.83848">
        <ele>135.974</ele>
        <time>2017-08-30T12:43:39Z</time>
      </trkpt>
      <trkpt lat="48.46367" lon="2.83848">
        <ele>89.3</ele>
        <time>2017-08-30T12:43:39Z</time>
      </trkpt>
      <trkpt lat="48.46367" lon="2.83848">
        <ele>89.3</ele>
        <time>2017-08-30T12:46:08Z</time>
      </trkpt>
      <trkpt lat="48.46393" lon="2.83856">
        <ele>135.44</ele>
        <time>2017-08-30T12:46:08Z</time>
      </trkpt>
      <trkpt lat="48.46365" lon="2.83847">
        <ele>135.152</ele>
        <time>2017-08-30T12:47:42Z</time>
      </trkpt>
      <trkpt lat="48.46351" lon="2.83889">
        <ele>134.803</ele>
        <time>2017-08-30T12:49:04Z</time>
      </trkpt>
      <trkpt lat="48.46347" lon="2.83899">
        <ele>134.757</ele>
        <time>2017-08-30T12:49:13Z</time>
      </trkpt>
      <trkpt lat="48.46347" lon="2.83899">
        <ele>88.7</ele>
        <time>2017-08-30T12:49:20Z</time>
      </trkpt>
      <trkpt lat="48.46347" lon="2.83899">
        <ele>88.7</ele>
        <time>2017-08-30T12:49:27Z</time>
      </trkpt>
      <trkpt lat="48.46351" lon="2.83912">
        <ele>134.715</ele>
        <time>2017-08-30T12:49:27Z</time>
      </trkpt>
      <trkpt lat="48.46351" lon="2.83938">
        <ele>134.684</ele>
        <time>2017-08-30T12:49:47Z</time>
      </trkpt>
      <trkpt lat="48.46351" lon="2.83938">
        <ele>134.684</ele>
        <time>2017-08-30T12:49:54Z</time>
      </trkpt>
      <trkpt lat="48.46351" lon="2.83938">
        <ele>90.1</ele>
        <time>2017-08-30T12:49:54Z</time>
      </trkpt>
      <trkpt lat="48.46351" lon="2.83938">
        <ele>90.1</ele>
        <time>2017-08-30T12:50:02Z</time>
      </trkpt>
      <trkpt lat="48.46358" lon="2.83956">
        <ele>134.657</ele>
        <time>2017-08-30T12:50:02Z</time>
      </trkpt>
      <trkpt lat="48.46363" lon="2.83978">
        <ele>134.629</ele>
        <time>2017-08-30T12:50:16Z</time>
      </trkpt>
      <trkpt lat="48.46363" lon="2.83978">
        <ele>134.629</ele>
        <time>2017-08-30T12:50:24Z</time>
      </trkpt>
      <trkpt lat="48.46363" lon="2.83978">
        <ele>91</ele>
        <time>2017-08-30T12:50:24Z</time>
      </trkpt>
      <trkpt lat="48.46363" lon="2.83978">
        <ele>91</ele>
        <time>2017-08-30T12:51:52Z</time>
      </trkpt>
      <trkpt lat="48.46379" lon="2.84009">
        <ele>134.601</ele>
        <time>2017-08-30T12:51:52Z</time>
      </trkpt>
      <trkpt lat="48.46383" lon="2.84014">
        <ele>134.606</ele>
        <time>2017-08-30T12:51:56Z</time>
      </trkpt>
      <trkpt lat="48.46383" lon="2.84014">
        <ele>93.7</ele>
        <time>2017-08-30T12:52:02Z</time>
      </trkpt>
      <trkpt lat="48.46383" lon="2.84014">
        <ele>93.7</ele>
        <time>2017-08-30T12:52:07Z</time>
      </trkpt>
      <trkpt lat="48.46388" lon="2.84023">
        <ele>134.623</ele>
        <time>2017-08-30T12:52:07Z</time>
      </trkpt>
      <trkpt lat="48.46396" lon="2.84045">
        <ele>134.637</ele>
        <time>2017-08-30T12:52:29Z</time>
      </trkpt>
      <trkpt lat="48.46406" lon="2.84064">
        <ele>134.636</ele>
        <time>2017-08-30T12:52:43Z</time>
      </trkpt>
      <trkpt lat="48.46414" lon="2.84072">
        <ele>134.627</ele>
        <time>2017-08-30T12:52:54Z</time>
      </trkpt>
      <trkpt lat="48.46422" lon="2.84086">
        <ele>134.618</ele>
        <time>2017-08-30T12:53:04Z</time>
      </trkpt>
      <trkpt lat="48.46429" lon="2.84104">
        <ele>134.6</ele>
        <time>2017-08-30T12:53:19Z</time>
      </trkpt>
      <trkpt lat="48.46433" lon="2.84125">
        <ele>134.598</ele>
        <time>2017-08-30T12:53:30Z</time>
      </trkpt>
      <trkpt lat="48.46433" lon="2.84148">
        <ele>134.589</ele>
        <time>2017-08-30T12:53:43Z</time>
      </trkpt>
      <trkpt lat="48.46438" lon="2.84183">
        <ele>134.577</ele>
        <time>2017-08-30T12:53:59Z</time>
      </trkpt>
      <trkpt lat="48.46441" lon="2.84212">
        <ele>134.53</ele>
        <time>2017-08-30T12:54:17Z</time>
      </trkpt>
      <trkpt lat="48.46442" lon="2.84245">
        <ele>134.46</ele>
        <time>2017-08-30T12:54:36Z</time>
      </trkpt>
      <trkpt lat="48.46443" lon="2.84276">
        <ele>134.417</ele>
        <time>2017-08-30T12:54:57Z</time>
      </trkpt>
      <trkpt lat="48.46443" lon="2.84289">
        <ele>134.411</ele>
        <time>2017-08-30T12:55:04Z</time>
      </trkpt>
      <trkpt lat="48.46439" lon="2.84313">
        <ele>134.409</ele>
        <time>2017-08-30T12:55:18Z</time>
      </trkpt>
      <trkpt lat="48.46441" lon="2.84335">
        <ele>134.437</ele>
        <time>2017-08-30T12:55:30Z</time>
      </trkpt>
      <trkpt lat="48.46439" lon="2.84359">
        <ele>134.464</ele>
        <time>2017-08-30T12:55:44Z</time>
      </trkpt>
      <trkpt lat="48.46436" lon="2.84383">
        <ele>134.532</ele>
        <time>2017-08-30T12:56:01Z</time>
      </trkpt>
      <trkpt lat="48.46439" lon="2.84401">
        <ele>134.571</ele>
        <time>2017-08-30T12:56:15Z</time>
      </trkpt>
      <trkpt lat="48.46446" lon="2.84435">
        <ele>134.598</ele>
        <time>2017-08-30T12:56:40Z</time>
      </trkpt>
      <trkpt lat="48.46451" lon="2.84457">
        <ele>134.608</ele>
        <time>2017-08-30T12:56:54Z</time>
      </trkpt>
      <trkpt lat="48.46462" lon="2.84482">
        <ele>134.614</ele>
        <time>2017-08-30T12:57:09Z</time>
      </trkpt>
      <trkpt lat="48.4647" lon="2.84499">
        <ele>134.633</ele>
        <time>2017-08-30T12:57:20Z</time>
      </trkpt>
      <trkpt lat="48.4647" lon="2.84532">
        <ele>134.667</ele>
        <time>2017-08-30T12:57:38Z</time>
      </trkpt>
      <trkpt lat="48.46472" lon="2.84555">
        <ele>134.671</ele>
        <time>2017-08-30T12:57:52Z</time>
      </trkpt>
      <trkpt lat="48.4647" lon="2.84576">
        <ele>134.666</ele>
        <time>2017-08-30T12:58:04Z</time>
      </trkpt>
      <trkpt lat="48.46469" lon="2.84607">
        <ele>134.65</ele>
        <time>2017-08-30T12:58:19Z</time>
      </trkpt>
      <trkpt lat="48.46469" lon="2.84607">
        <ele>134.65</ele>
        <time>2017-08-30T12:58:26Z</time>
      </trkpt>
      <trkpt lat="48.46469" lon="2.84607">
        <ele>106.9</ele>
        <time>2017-08-30T12:58:26Z</time>
      </trkpt>
      <trkpt lat="48.46469" lon="2.84607">
        <ele>106.9</ele>
        <time>2017-08-30T12:58:41Z</time>
      </trkpt>
      <trkpt lat="48.46468" lon="2.84627">
        <ele>134.65</ele>
        <time>2017-08-30T12:58:41Z</time>
      </trkpt>
      <trkpt lat="48.4647" lon="2.84656">
        <ele>134.662</ele>
        <time>2017-08-30T12:58:58Z</time>
      </trkpt>
      <trkpt lat="48.46472" lon="2.84674">
        <ele>134.674</ele>
        <time>2017-08-30T12:59:12Z</time>
      </trkpt>
      <trkpt lat="48.46472" lon="2.84697">
        <ele>134.677</ele>
        <time>2017-08-30T12:59:28Z</time>
      </trkpt>
      <trkpt lat="48.46475" lon="2.84722">
        <ele>134.669</ele>
        <time>2017-08-30T12:59:43Z</time>
      </trkpt>
      <trkpt lat="48.46474" lon="2.8475">
        <ele>134.67</ele>
        <time>2017-08-30T13:00:01Z</time>
      </trkpt>
      <trkpt lat="48.46474" lon="2.84769">
        <ele>134.682</ele>
        <time>2017-08-30T13:00:12Z</time>
      </trkpt>
      <trkpt lat="48.46467" lon="2.84785">
        <ele>134.706</ele>
        <time>2017-08-30T13:00:19Z</time>
      </trkpt>
      <trkpt lat="48.46467" lon="2.84785">
        <ele>112.9</ele>
        <time>2017-08-30T13:00:25Z</time>
      </trkpt>
      <trkpt lat="48.46467" lon="2.84785">
        <ele>112.9</ele>
        <time>2017-08-30T13:02:17Z</time>
      </trkpt>
      <trkpt lat="48.46473" lon="2.84832">
        <ele>136.094</ele>
        <time>2017-08-30T13:02:17Z</time>
      </trkpt>
      <trkpt lat="48.4647" lon="2.84851">
        <ele>136.455</ele>
        <time>2017-08-30T13:02:30Z</time>
      </trkpt>
      <trkpt lat="48.4647" lon="2.84851">
        <ele>136.455</ele>
        <time>2017-08-30T13:02:37Z</time>
      </trkpt>
      <trkpt lat="48.4647" lon="2.84851">
        <ele>113.9</ele>
        <time>2017-08-30T13:02:37Z</time>
      </trkpt>
      <trkpt lat="48.4647" lon="2.84851">
        <ele>113.9</ele>
        <time>2017-08-30T13:02:46Z</time>
      </trkpt>
      <trkpt lat="48.46464" lon="2.84865">
        <ele>136.851</ele>
        <time>2017-08-30T13:02:46Z</time>
      </trkpt>
      <trkpt lat="48.46455" lon="2.84883">
        <ele>137.233</ele>
        <time>2017-08-30T13:03:02Z</time>
      </trkpt>
      <trkpt lat="48.46447" lon="2.84903">
        <ele>137.542</ele>
        <time>2017-08-30T13:03:17Z</time>
      </trkpt>
      <trkpt lat="48.46438" lon="2.84938">
        <ele>137.881</ele>
        <time>2017-08-30T13:03:34Z</time>
      </trkpt>
      <trkpt lat="48.46435" lon="2.84952">
        <ele>138.064</ele>
        <time>2017-08-30T13:03:43Z</time>
      </trkpt>
      <trkpt lat="48.46435" lon="2.84956">
        <ele>138.105</ele>
        <time>2017-08-30T13:03:45Z</time>
      </trkpt>
      <trkpt lat="48.46435" lon="2.84956">
        <ele>113.8</ele>
        <time>2017-08-30T13:03:50Z</time>
      </trkpt>
      <trkpt lat="48.46435" lon="2.84956">
        <ele>113.8</ele>
        <time>2017-08-30T13:04:27Z</time>
      </trkpt>
      <trkpt lat="48.46418" lon="2.84995">
        <ele>138.945</ele>
        <time>2017-08-30T13:04:27Z</time>
      </trkpt>
      <trkpt lat="48.46409" lon="2.85014">
        <ele>139.347</ele>
        <time>2017-08-30T13:04:42Z</time>
      </trkpt>
      <trkpt lat="48.46406" lon="2.85021">
        <ele>139.443</ele>
        <time>2017-08-30T13:04:46Z</time>
      </trkpt>
      <trkpt lat="48.46406" lon="2.85021">
        <ele>112.6</ele>
        <time>2017-08-30T13:04:53Z</time>
      </trkpt>
      <trkpt lat="48.46406" lon="2.85021">
        <ele>112.6</ele>
        <time>2017-08-30T13:05:21Z</time>
      </trkpt>
      <trkpt lat="48.46396" lon="2.85061">
        <ele>140.24</ele>
        <time>2017-08-30T13:05:21Z</time>
      </trkpt>
      <trkpt lat="48.46389" lon="2.85089">
        <ele>140.637</ele>
        <time>2017-08-30T13:05:37Z</time>
      </trkpt>
      <trkpt lat="48.46381" lon="2.85104">
        <ele>140.946</ele>
        <time>2017-08-30T13:05:54Z</time>
      </trkpt>
      <trkpt lat="48.46365" lon="2.8514">
        <ele>142.007</ele>
        <time>2017-08-30T13:07:05Z</time>
      </trkpt>
      <trkpt lat="48.4636" lon="2.85166">
        <ele>142.266</ele>
        <time>2017-08-30T13:07:17Z</time>
      </trkpt>
      <trkpt lat="48.46352" lon="2.85187">
        <ele>142.538</ele>
        <time>2017-08-30T13:07:32Z</time>
      </trkpt>
      <trkpt lat="48.46339" lon="2.85219">
        <ele>142.802</ele>
        <time>2017-08-30T13:07:49Z</time>
      </trkpt>
      <trkpt lat="48.46331" lon="2.85236">
        <ele>142.969</ele>
        <time>2017-08-30T13:08:02Z</time>
      </trkpt>
      <trkpt lat="48.46323" lon="2.85264">
        <ele>143.128</ele>
        <time>2017-08-30T13:08:16Z</time>
      </trkpt>
      <trkpt lat="48.4632" lon="2.85284">
        <ele>143.218</ele>
        <time>2017-08-30T13:08:25Z</time>
      </trkpt>
      <trkpt lat="48.46317" lon="2.85309">
        <ele>143.349</ele>
        <time>2017-08-30T13:08:41Z</time>
      </trkpt>
      <trkpt lat="48.46313" lon="2.85321">
        <ele>143.389</ele>
        <time>2017-08-30T13:08:47Z</time>
      </trkpt>
      <trkpt lat="48.4631" lon="2.85347">
        <ele>143.477</ele>
        <time>2017-08-30T13:09:03Z</time>
      </trkpt>
      <trkpt lat="48.46303" lon="2.85368">
        <ele>143.54</ele>
        <time>2017-08-30T13:09:17Z</time>
      </trkpt>
      <trkpt lat="48.46292" lon="2.854">
        <ele>143.603</ele>
        <time>2017-08-30T13:09:34Z</time>
      </trkpt>
      <trkpt lat="48.46285" lon="2.85409">
        <ele>143.633</ele>
        <time>2017-08-30T13:09:42Z</time>
      </trkpt>
      <trkpt lat="48.46285" lon="2.85409">
        <ele>110.4</ele>
        <time>2017-08-30T13:09:50Z</time>
      </trkpt>
      <trkpt lat="48.46285" lon="2.85409">
        <ele>110.4</ele>
        <time>2017-08-30T13:10:42Z</time>
      </trkpt>
      <trkpt lat="48.46253" lon="2.85397">
        <ele>143.762</ele>
        <time>2017-08-30T13:10:42Z</time>
      </trkpt>
      <trkpt lat="48.46234" lon="2.85387">
        <ele>143.782</ele>
        <time>2017-08-30T13:10:57Z</time>
      </trkpt>
      <trkpt lat="48.46218" lon="2.85374">
        <ele>143.814</ele>
        <time>2017-08-30T13:11:10Z</time>
      </trkpt>
      <trkpt lat="48.46218" lon="2.85374">
        <ele>106.7</ele>
        <time>2017-08-30T13:11:17Z</time>
      </trkpt>
      <trkpt lat="48.46218" lon="2.85374">
        <ele>106.7</ele>
        <time>2017-08-30T13:11:26Z</time>
      </trkpt>
      <trkpt lat="48.46215" lon="2.85393">
        <ele>143.886</ele>
        <time>2017-08-30T13:11:26Z</time>
      </trkpt>
      <trkpt lat="48.46211" lon="2.85417">
        <ele>143.977</ele>
        <time>2017-08-30T13:11:41Z</time>
      </trkpt>
      <trkpt lat="48.46209" lon="2.8544">
        <ele>144.065</ele>
        <time>2017-08-30T13:11:53Z</time>
      </trkpt>
      <trkpt lat="48.46206" lon="2.85465">
        <ele>144.195</ele>
        <time>2017-08-30T13:12:07Z</time>
      </trkpt>
      <trkpt lat="48.46203" lon="2.85485">
        <ele>144.309</ele>
        <time>2017-08-30T13:12:18Z</time>
      </trkpt>
      <trkpt lat="48.46202" lon="2.85514">
        <ele>144.469</ele>
        <time>2017-08-30T13:12:34Z</time>
      </trkpt>
      <trkpt lat="48.46201" lon="2.85542">
        <ele>144.636</ele>
        <time>2017-08-30T13:12:50Z</time>
      </trkpt>
      <trkpt lat="48.46195" lon="2.8557">
        <ele>144.793</ele>
        <time>2017-08-30T13:13:05Z</time>
      </trkpt>
      <trkpt lat="48.46191" lon="2.85596">
        <ele>144.964</ele>
        <time>2017-08-30T13:13:20Z</time>
      </trkpt>
      <trkpt lat="48.46189" lon="2.85621">
        <ele>145.132</ele>
        <time>2017-08-30T13:13:33Z</time>
      </trkpt>
      <trkpt lat="48.46183" lon="2.85651">
        <ele>145.363</ele>
        <time>2017-08-30T13:13:51Z</time>
      </trkpt>
      <trkpt lat="48.46178" lon="2.8568">
        <ele>145.601</ele>
        <time>2017-08-30T13:14:08Z</time>
      </trkpt>
      <trkpt lat="48.46176" lon="2.85687">
        <ele>145.679</ele>
        <time>2017-08-30T13:14:13Z</time>
      </trkpt>
      <trkpt lat="48.46176" lon="2.85687">
        <ele>110.2</ele>
        <time>2017-08-30T13:14:18Z</time>
      </trkpt>
      <trkpt lat="48.46176" lon="2.85687">
        <ele>110.2</ele>
        <time>2017-08-30T13:14:24Z</time>
      </trkpt>
      <trkpt lat="48.46177" lon="2.85703">
        <ele>145.851</ele>
        <time>2017-08-30T13:14:24Z</time>
      </trkpt>
      <trkpt lat="48.46176" lon="2.85733">
        <ele>146.086</ele>
        <time>2017-08-30T13:14:39Z</time>
      </trkpt>
      <trkpt lat="48.46173" lon="2.85761">
        <ele>146.416</ele>
        <time>2017-08-30T13:14:55Z</time>
      </trkpt>
      <trkpt lat="48.46172" lon="2.85786">
        <ele>146.729</ele>
        <time>2017-08-30T13:15:10Z</time>
      </trkpt>
      <trkpt lat="48.4617" lon="2.85807">
        <ele>146.992</ele>
        <time>2017-08-30T13:15:23Z</time>
      </trkpt>
      <trkpt lat="48.46172" lon="2.85838">
        <ele>147.379</ele>
        <time>2017-08-30T13:15:43Z</time>
      </trkpt>
      <trkpt lat="48.46171" lon="2.85869">
        <ele>147.666</ele>
        <time>2017-08-30T13:16:01Z</time>
      </trkpt>
      <trkpt lat="48.4617" lon="2.85904">
        <ele>147.872</ele>
        <time>2017-08-30T13:16:19Z</time>
      </trkpt>
      <trkpt lat="48.46156" lon="2.85915">
        <ele>148.013</ele>
        <time>2017-08-30T13:16:32Z</time>
      </trkpt>
      <trkpt lat="48.46136" lon="2.85915">
        <ele>148.202</ele>
        <time>2017-08-30T13:16:49Z</time>
      </trkpt>
      <trkpt lat="48.46119" lon="2.85915">
        <ele>148.365</ele>
        <time>2017-08-30T13:17:05Z</time>
      </trkpt>
      <trkpt lat="48.46104" lon="2.85916">
        <ele>148.486</ele>
        <time>2017-08-30T13:17:19Z</time>
      </trkpt>
      <trkpt lat="48.46088" lon="2.85914">
        <ele>148.572</ele>
        <time>2017-08-30T13:17:32Z</time>
      </trkpt>
      <trkpt lat="48.46073" lon="2.85913">
        <ele>148.643</ele>
        <time>2017-08-30T13:17:46Z</time>
      </trkpt>
      <trkpt lat="48.46068" lon="2.85912">
        <ele>148.659</ele>
        <time>2017-08-30T13:17:50Z</time>
      </trkpt>
      <trkpt lat="48.46068" lon="2.85912">
        <ele>106.5</ele>
        <time>2017-08-30T13:17:57Z</time>
      </trkpt>
      <trkpt lat="48.46068" lon="2.85912">
        <ele>106.5</ele>
        <time>2017-08-30T13:18:07Z</time>
      </trkpt>
      <trkpt lat="48.46054" lon="2.85907">
        <ele>148.74</ele>
        <time>2017-08-30T13:18:07Z</time>
      </trkpt>
      <trkpt lat="48.46032" lon="2.85907">
        <ele>148.834</ele>
        <time>2017-08-30T13:18:26Z</time>
      </trkpt>
      <trkpt lat="48.46016" lon="2.85908">
        <ele>148.868</ele>
        <time>2017-08-30T13:18:38Z</time>
      </trkpt>
      <trkpt lat="48.45994" lon="2.85911">
        <ele>148.91</ele>
        <time>2017-08-30T13:18:54Z</time>
      </trkpt>
      <trkpt lat="48.45982" lon="2.85913">
        <ele>148.944</ele>
        <time>2017-08-30T13:19:07Z</time>
      </trkpt>
      <trkpt lat="48.45963" lon="2.85917">
        <ele>148.964</ele>
        <time>2017-08-30T13:19:24Z</time>
      </trkpt>
      <trkpt lat="48.45946" lon="2.85919">
        <ele>148.981</ele>
        <time>2017-08-30T13:19:38Z</time>
      </trkpt>
      <trkpt lat="48.45931" lon="2.85934">
        <ele>148.992</ele>
        <time>2017-08-30T13:19:55Z</time>
      </trkpt>
      <trkpt lat="48.45918" lon="2.85948">
        <ele>148.978</ele>
        <time>2017-08-30T13:20:09Z</time>
      </trkpt>
      <trkpt lat="48.45896" lon="2.85971">
        <ele>148.873</ele>
        <time>2017-08-30T13:20:29Z</time>
      </trkpt>
      <trkpt lat="48.45884" lon="2.85984">
        <ele>148.82</ele>
        <time>2017-08-30T13:20:44Z</time>
      </trkpt>
      <trkpt lat="48.45877" lon="2.85986">
        <ele>148.784</ele>
        <time>2017-08-30T13:20:54Z</time>
      </trkpt>
      <trkpt lat="48.45877" lon="2.85986">
        <ele>97.8</ele>
        <time>2017-08-30T13:21:01Z</time>
      </trkpt>
      <trkpt lat="48.45877" lon="2.85986">
        <ele>97.8</ele>
        <time>2017-08-30T13:21:38Z</time>
      </trkpt>
      <trkpt lat="48.45854" lon="2.85987">
        <ele>148.666</ele>
        <time>2017-08-30T13:21:38Z</time>
      </trkpt>
      <trkpt lat="48.45843" lon="2.85986">
        <ele>148.668</ele>
        <time>2017-08-30T13:21:47Z</time>
      </trkpt>
      <trkpt lat="48.4583" lon="2.8599">
        <ele>148.684</ele>
        <time>2017-08-30T13:22:00Z</time>
      </trkpt>
      <trkpt lat="48.45825" lon="2.86014">
        <ele>148.644</ele>
        <time>2017-08-30T13:22:16Z</time>
      </trkpt>
      <trkpt lat="48.45824" lon="2.86036">
        <ele>148.576</ele>
        <time>2017-08-30T13:22:31Z</time>
      </trkpt>
      <trkpt lat="48.4581" lon="2.86024">
        <ele>148.488</ele>
        <time>2017-08-30T13:22:50Z</time>
      </trkpt>
      <trkpt lat="48.45799" lon="2.85994">
        <ele>148.409</ele>
        <time>2017-08-30T13:23:09Z</time>
      </trkpt>
      <trkpt lat="48.45797" lon="2.85972">
        <ele>148.353</ele>
        <time>2017-08-30T13:23:22Z</time>
      </trkpt>
      <trkpt lat="48.45796" lon="2.85952">
        <ele>148.306</ele>
        <time>2017-08-30T13:23:34Z</time>
      </trkpt>
      <trkpt lat="48.45796" lon="2.85919">
        <ele>148.249</ele>
        <time>2017-08-30T13:23:54Z</time>
      </trkpt>
      <trkpt lat="48.45796" lon="2.8589">
        <ele>148.236</ele>
        <time>2017-08-30T13:24:10Z</time>
      </trkpt>
      <trkpt lat="48.45797" lon="2.85862">
        <ele>148.203</ele>
        <time>2017-08-30T13:24:26Z</time>
      </trkpt>
      <trkpt lat="48.45793" lon="2.85829">
        <ele>148.13</ele>
        <time>2017-08-30T13:24:46Z</time>
      </trkpt>
      <trkpt lat="48.45789" lon="2.85801">
        <ele>148.06</ele>
        <time>2017-08-30T13:25:01Z</time>
      </trkpt>
      <trkpt lat="48.45787" lon="2.85784">
        <ele>148.015</ele>
        <time>2017-08-30T13:25:11Z</time>
      </trkpt>
      <trkpt lat="48.45786" lon="2.85755">
        <ele>147.946</ele>
        <time>2017-08-30T13:25:28Z</time>
      </trkpt>
      <trkpt lat="48.45783" lon="2.85737">
        <ele>147.891</ele>
        <time>2017-08-30T13:25:39Z</time>
      </trkpt>
      <trkpt lat="48.45785" lon="2.85704">
        <ele>147.768</ele>
        <time>2017-08-30T13:25:56Z</time>
      </trkpt>
      <trkpt lat="48.45788" lon="2.85686">
        <ele>147.667</ele>
        <time>2017-08-30T13:26:06Z</time>
      </trkpt>
      <trkpt lat="48.45791" lon="2.85664">
        <ele>147.551</ele>
        <time>2017-08-30T13:26:19Z</time>
      </trkpt>
      <trkpt lat="48.45793" lon="2.85638">
        <ele>147.419</ele>
        <time>2017-08-30T13:26:33Z</time>
      </trkpt>
      <trkpt lat="48.45794" lon="2.85612">
        <ele>147.24</ele>
        <time>2017-08-30T13:26:49Z</time>
      </trkpt>
      <trkpt lat="48.45795" lon="2.85577">
        <ele>147.018</ele>
        <time>2017-08-30T13:27:08Z</time>
      </trkpt>
      <trkpt lat="48.458" lon="2.85555">
        <ele>146.817</ele>
        <time>2017-08-30T13:27:23Z</time>
      </trkpt>
      <trkpt lat="48.45813" lon="2.8553">
        <ele>146.628</ele>
        <time>2017-08-30T13:27:37Z</time>
      </trkpt>
      <trkpt lat="48.45822" lon="2.85511">
        <ele>146.452</ele>
        <time>2017-08-30T13:27:51Z</time>
      </trkpt>
      <trkpt lat="48.45834" lon="2.85488">
        <ele>146.273</ele>
        <time>2017-08-30T13:28:10Z</time>
      </trkpt>
      <trkpt lat="48.45837" lon="2.85471">
        <ele>146.186</ele>
        <time>2017-08-30T13:28:24Z</time>
      </trkpt>
      <trkpt lat="48.45837" lon="2.85471">
        <ele>89</ele>
        <time>2017-08-30T13:28:31Z</time>
      </trkpt>
      <trkpt lat="48.45837" lon="2.85471">
        <ele>89</ele>
        <time>2017-08-30T13:33:52Z</time>
      </trkpt>
      <trkpt lat="48.45813" lon="2.85445">
        <ele>145.285</ele>
        <time>2017-08-30T13:33:52Z</time>
      </trkpt>
      <trkpt lat="48.45809" lon="2.85446">
        <ele>145.235</ele>
        <time>2017-08-30T13:33:58Z</time>
      </trkpt>
      <trkpt lat="48.45809" lon="2.85446">
        <ele>91.8</ele>
        <time>2017-08-30T13:34:05Z</time>
      </trkpt>
      <trkpt lat="48.45809" lon="2.85446">
        <ele>91.8</ele>
        <time>2017-08-30T13:34:09Z</time>
      </trkpt>
      <trkpt lat="48.45799" lon="2.85444">
        <ele>145.155</ele>
        <time>2017-08-30T13:34:09Z</time>
      </trkpt>
      <trkpt lat="48.4579" lon="2.85441">
        <ele>145.094</ele>
        <time>2017-08-30T13:34:17Z</time>
      </trkpt>
      <trkpt lat="48.45766" lon="2.8543">
        <ele>144.981</ele>
        <time>2017-08-30T13:34:35Z</time>
      </trkpt>
      <trkpt lat="48.45754" lon="2.85417">
        <ele>144.904</ele>
        <time>2017-08-30T13:34:52Z</time>
      </trkpt>
      <trkpt lat="48.45739" lon="2.85398">
        <ele>144.838</ele>
        <time>2017-08-30T13:35:09Z</time>
      </trkpt>
      <trkpt lat="48.45728" lon="2.85386">
        <ele>144.799</ele>
        <time>2017-08-30T13:35:21Z</time>
      </trkpt>
      <trkpt lat="48.4572" lon="2.85375">
        <ele>144.777</ele>
        <time>2017-08-30T13:35:29Z</time>
      </trkpt>
      <trkpt lat="48.45707" lon="2.85353">
        <ele>144.741</ele>
        <time>2017-08-30T13:35:45Z</time>
      </trkpt>
      <trkpt lat="48.45698" lon="2.85337">
        <ele>144.723</ele>
        <time>2017-08-30T13:35:56Z</time>
      </trkpt>
      <trkpt lat="48.45689" lon="2.85322">
        <ele>144.71</ele>
        <time>2017-08-30T13:36:06Z</time>
      </trkpt>
      <trkpt lat="48.45682" lon="2.85307">
        <ele>144.705</ele>
        <time>2017-08-30T13:36:16Z</time>
      </trkpt>
      <trkpt lat="48.4567" lon="2.85282">
        <ele>144.711</ele>
        <time>2017-08-30T13:36:34Z</time>
      </trkpt>
      <trkpt lat="48.45657" lon="2.85256">
        <ele>144.752</ele>
        <time>2017-08-30T13:36:52Z</time>
      </trkpt>
      <trkpt lat="48.4564" lon="2.85231">
        <ele>144.832</ele>
        <time>2017-08-30T13:37:12Z</time>
      </trkpt>
      <trkpt lat="48.45629" lon="2.85205">
        <ele>144.91</ele>
        <time>2017-08-30T13:37:28Z</time>
      </trkpt>
      <trkpt lat="48.45617" lon="2.85178">
        <ele>144.998</ele>
        <time>2017-08-30T13:37:47Z</time>
      </trkpt>
      <trkpt lat="48.45599" lon="2.85161">
        <ele>145.076</ele>
        <time>2017-08-30T13:38:05Z</time>
      </trkpt>
      <trkpt lat="48.45582" lon="2.85146">
        <ele>145.112</ele>
        <time>2017-08-30T13:38:21Z</time>
      </trkpt>
      <trkpt lat="48.45568" lon="2.85137">
        <ele>145.116</ele>
        <time>2017-08-30T13:38:34Z</time>
      </trkpt>
      <trkpt lat="48.4555" lon="2.8513">
        <ele>145.113</ele>
        <time>2017-08-30T13:38:51Z</time>
      </trkpt>
      <trkpt lat="48.45547" lon="2.85129">
        <ele>145.106</ele>
        <time>2017-08-30T13:38:55Z</time>
      </trkpt>
      <trkpt lat="48.45547" lon="2.85129">
        <ele>102</ele>
        <time>2017-08-30T13:39:00Z</time>
      </trkpt>
      <trkpt lat="48.45547" lon="2.85129">
        <ele>102</ele>
        <time>2017-08-30T13:39:03Z</time>
      </trkpt>
      <trkpt lat="48.4554" lon="2.85123">
        <ele>145.079</ele>
        <time>2017-08-30T13:39:03Z</time>
      </trkpt>
      <trkpt lat="48.4553" lon="2.85118">
        <ele>145.056</ele>
        <time>2017-08-30T13:39:11Z</time>
      </trkpt>
      <trkpt lat="48.45511" lon="2.85112">
        <ele>145.038</ele>
        <time>2017-08-30T13:39:27Z</time>
      </trkpt>
      <trkpt lat="48.45496" lon="2.85106">
        <ele>145.028</ele>
        <time>2017-08-30T13:39:41Z</time>
      </trkpt>
      <trkpt lat="48.45477" lon="2.85099">
        <ele>145.007</ele>
        <time>2017-08-30T13:39:57Z</time>
      </trkpt>
      <trkpt lat="48.45458" lon="2.85091">
        <ele>145.008</ele>
        <time>2017-08-30T13:40:12Z</time>
      </trkpt>
      <trkpt lat="48.45449" lon="2.85084">
        <ele>145.013</ele>
        <time>2017-08-30T13:40:20Z</time>
      </trkpt>
      <trkpt lat="48.45438" lon="2.85062">
        <ele>145.043</ele>
        <time>2017-08-30T13:40:36Z</time>
      </trkpt>
      <trkpt lat="48.45438" lon="2.85039">
        <ele>145.087</ele>
        <time>2017-08-30T13:40:49Z</time>
      </trkpt>
      <trkpt lat="48.45441" lon="2.85023">
        <ele>145.147</ele>
        <time>2017-08-30T13:40:58Z</time>
      </trkpt>
      <trkpt lat="48.45443" lon="2.85001">
        <ele>145.258</ele>
        <time>2017-08-30T13:41:09Z</time>
      </trkpt>
      <trkpt lat="48.45443" lon="2.85001">
        <ele>145.258</ele>
        <time>2017-08-30T13:41:14Z</time>
      </trkpt>
      <trkpt lat="48.45443" lon="2.85001">
        <ele>104</ele>
        <time>2017-08-30T13:41:14Z</time>
      </trkpt>
      <trkpt lat="48.45443" lon="2.85001">
        <ele>104</ele>
        <time>2017-08-30T13:41:19Z</time>
      </trkpt>
      <trkpt lat="48.45446" lon="2.84987">
        <ele>145.383</ele>
        <time>2017-08-30T13:41:19Z</time>
      </trkpt>
      <trkpt lat="48.4545" lon="2.8496">
        <ele>145.587</ele>
        <time>2017-08-30T13:41:33Z</time>
      </trkpt>
      <trkpt lat="48.45456" lon="2.84942">
        <ele>145.761</ele>
        <time>2017-08-30T13:41:44Z</time>
      </trkpt>
      <trkpt lat="48.45464" lon="2.84912">
        <ele>145.985</ele>
        <time>2017-08-30T13:42:03Z</time>
      </trkpt>
      <trkpt lat="48.45466" lon="2.84881">
        <ele>146.171</ele>
        <time>2017-08-30T13:42:21Z</time>
      </trkpt>
      <trkpt lat="48.45464" lon="2.84853">
        <ele>146.339</ele>
        <time>2017-08-30T13:42:37Z</time>
      </trkpt>
      <trkpt lat="48.45462" lon="2.84834">
        <ele>146.433</ele>
        <time>2017-08-30T13:42:48Z</time>
      </trkpt>
      <trkpt lat="48.45459" lon="2.84804">
        <ele>146.561</ele>
        <time>2017-08-30T13:43:04Z</time>
      </trkpt>
      <trkpt lat="48.45456" lon="2.84774">
        <ele>146.739</ele>
        <time>2017-08-30T13:43:22Z</time>
      </trkpt>
      <trkpt lat="48.45448" lon="2.84737">
        <ele>147.039</ele>
        <time>2017-08-30T13:43:41Z</time>
      </trkpt>
      <trkpt lat="48.45443" lon="2.84709">
        <ele>147.336</ele>
        <time>2017-08-30T13:43:58Z</time>
      </trkpt>
      <trkpt lat="48.45437" lon="2.84691">
        <ele>147.523</ele>
        <time>2017-08-30T13:44:08Z</time>
      </trkpt>
      <trkpt lat="48.45432" lon="2.84671">
        <ele>147.717</ele>
        <time>2017-08-30T13:44:18Z</time>
      </trkpt>
      <trkpt lat="48.45426" lon="2.84648">
        <ele>148.002</ele>
        <time>2017-08-30T13:44:33Z</time>
      </trkpt>
      <trkpt lat="48.45418" lon="2.84616">
        <ele>148.363</ele>
        <time>2017-08-30T13:44:53Z</time>
      </trkpt>
      <trkpt lat="48.45411" lon="2.84588">
        <ele>148.66</ele>
        <time>2017-08-30T13:45:09Z</time>
      </trkpt>
      <trkpt lat="48.45407" lon="2.84565">
        <ele>148.951</ele>
        <time>2017-08-30T13:45:23Z</time>
      </trkpt>
      <trkpt lat="48.45404" lon="2.8454">
        <ele>149.229</ele>
        <time>2017-08-30T13:45:36Z</time>
      </trkpt>
      <trkpt lat="48.45399" lon="2.84514">
        <ele>149.544</ele>
        <time>2017-08-30T13:45:51Z</time>
      </trkpt>
      <trkpt lat="48.45397" lon="2.845">
        <ele>149.722</ele>
        <time>2017-08-30T13:45:59Z</time>
      </trkpt>
      <trkpt lat="48.45393" lon="2.84478">
        <ele>149.984</ele>
        <time>2017-08-30T13:46:11Z</time>
      </trkpt>
      <trkpt lat="48.4539" lon="2.84445">
        <ele>150.371</ele>
        <time>2017-08-30T13:46:29Z</time>
      </trkpt>
      <trkpt lat="48.45386" lon="2.8442">
        <ele>150.679</ele>
        <time>2017-08-30T13:46:43Z</time>
      </trkpt>
      <trkpt lat="48.45385" lon="2.844">
        <ele>150.97</ele>
        <time>2017-08-30T13:46:57Z</time>
      </trkpt>
      <trkpt lat="48.45382" lon="2.84385">
        <ele>151.176</ele>
        <time>2017-08-30T13:47:07Z</time>
      </trkpt>
      <trkpt lat="48.45393" lon="2.84344">
        <ele>151.756</ele>
        <time>2017-08-30T13:47:48Z</time>
      </trkpt>
      <trkpt lat="48.45402" lon="2.84316">
        <ele>151.999</ele>
        <time>2017-08-30T13:48:05Z</time>
      </trkpt>
      <trkpt lat="48.45408" lon="2.84287">
        <ele>152.245</ele>
        <time>2017-08-30T13:48:23Z</time>
      </trkpt>
      <trkpt lat="48.45419" lon="2.8426">
        <ele>152.451</ele>
        <time>2017-08-30T13:48:40Z</time>
      </trkpt>
      <trkpt lat="48.45425" lon="2.84233">
        <ele>152.653</ele>
        <time>2017-08-30T13:48:56Z</time>
      </trkpt>
      <trkpt lat="48.45428" lon="2.84216">
        <ele>152.777</ele>
        <time>2017-08-30T13:49:05Z</time>
      </trkpt>
      <trkpt lat="48.45433" lon="2.84197">
        <ele>152.92</ele>
        <time>2017-08-30T13:49:15Z</time>
      </trkpt>
      <trkpt lat="48.45438" lon="2.84176">
        <ele>153.082</ele>
        <time>2017-08-30T13:49:26Z</time>
      </trkpt>
      <trkpt lat="48.45445" lon="2.84149">
        <ele>153.343</ele>
        <time>2017-08-30T13:49:43Z</time>
      </trkpt>
      <trkpt lat="48.45454" lon="2.84119">
        <ele>153.58</ele>
        <time>2017-08-30T13:49:59Z</time>
      </trkpt>
      <trkpt lat="48.4546" lon="2.84103">
        <ele>153.746</ele>
        <time>2017-08-30T13:50:10Z</time>
      </trkpt>
      <trkpt lat="48.45468" lon="2.84073">
        <ele>153.973</ele>
        <time>2017-08-30T13:50:26Z</time>
      </trkpt>
      <trkpt lat="48.45478" lon="2.84043">
        <ele>154.182</ele>
        <time>2017-08-30T13:50:43Z</time>
      </trkpt>
      <trkpt lat="48.45487" lon="2.84011">
        <ele>154.407</ele>
        <time>2017-08-30T13:51:03Z</time>
      </trkpt>
      <trkpt lat="48.45493" lon="2.83989">
        <ele>154.547</ele>
        <time>2017-08-30T13:51:16Z</time>
      </trkpt>
      <trkpt lat="48.45498" lon="2.83961">
        <ele>154.706</ele>
        <time>2017-08-30T13:51:31Z</time>
      </trkpt>
      <trkpt lat="48.45508" lon="2.83931">
        <ele>154.888</ele>
        <time>2017-08-30T13:51:47Z</time>
      </trkpt>
      <trkpt lat="48.45517" lon="2.83899">
        <ele>155.122</ele>
        <time>2017-08-30T13:52:04Z</time>
      </trkpt>
      <trkpt lat="48.45526" lon="2.83871">
        <ele>155.322</ele>
        <time>2017-08-30T13:52:21Z</time>
      </trkpt>
      <trkpt lat="48.45535" lon="2.83834">
        <ele>155.525</ele>
        <time>2017-08-30T13:52:39Z</time>
      </trkpt>
      <trkpt lat="48.45537" lon="2.83822">
        <ele>155.607</ele>
        <time>2017-08-30T13:52:46Z</time>
      </trkpt>
      <trkpt lat="48.45544" lon="2.83801">
        <ele>155.749</ele>
        <time>2017-08-30T13:52:59Z</time>
      </trkpt>
      <trkpt lat="48.4555" lon="2.8378">
        <ele>155.878</ele>
        <time>2017-08-30T13:53:12Z</time>
      </trkpt>
      <trkpt lat="48.45556" lon="2.83759">
        <ele>155.985</ele>
        <time>2017-08-30T13:53:24Z</time>
      </trkpt>
      <trkpt lat="48.45568" lon="2.83726">
        <ele>156.136</ele>
        <time>2017-08-30T13:53:42Z</time>
      </trkpt>
      <trkpt lat="48.45577" lon="2.8371">
        <ele>156.2</ele>
        <time>2017-08-30T13:53:52Z</time>
      </trkpt>
      <trkpt lat="48.45581" lon="2.83686">
        <ele>156.26</ele>
        <time>2017-08-30T13:54:04Z</time>
      </trkpt>
      <trkpt lat="48.45584" lon="2.83663">
        <ele>156.315</ele>
        <time>2017-08-30T13:54:18Z</time>
      </trkpt>
      <trkpt lat="48.45588" lon="2.83636">
        <ele>156.356</ele>
        <time>2017-08-30T13:54:33Z</time>
      </trkpt>
      <trkpt lat="48.45599" lon="2.83614">
        <ele>156.386</ele>
        <time>2017-08-30T13:54:48Z</time>
      </trkpt>
      <trkpt lat="48.45604" lon="2.83589">
        <ele>156.437</ele>
        <time>2017-08-30T13:55:03Z</time>
      </trkpt>
      <trkpt lat="48.45609" lon="2.83562">
        <ele>156.507</ele>
        <time>2017-08-30T13:55:21Z</time>
      </trkpt>
      <trkpt lat="48.45612" lon="2.83557">
        <ele>156.538</ele>
        <time>2017-08-30T13:55:26Z</time>
      </trkpt>
      <trkpt lat="48.45612" lon="2.83557">
        <ele>113</ele>
        <time>2017-08-30T13:55:33Z</time>
      </trkpt>
      <trkpt lat="48.45612" lon="2.83557">
        <ele>113</ele>
        <time>2017-08-30T13:59:15Z</time>
      </trkpt>
      <trkpt lat="48.45612" lon="2.83557">
        <ele>113</ele>
        <time>2017-08-30T13:59:15Z</time>
      </trkpt>
    </trkseg>
  </trk>
</gpx>